﻿<?xml version="1.0" encoding="UTF-8" standalone="no" ?>
<gpx xmlns="http://www.topografix.com/GPX/1/1" creator="CompeGPS" version="1.1" xmlns:xsi="http://www.w3.org/2001/XMLSchema-instance" xsi:schemaLocation="http://www.topografix.com/GPX/1/1 http://www.topografix.com/GPX/1/1/gpx.xsd http://www.garmin.com/xmlschemas/GpxExtensions/v3 http://www.garmin.com/xmlschemas/GpxExtensionsv3.xsd http://www.garmin.com/xmlschemas/TrackPointExtension/v1 http://www.garmin.com/xmlschemas/TrackPointExtensionv1.xsd" xmlns:gpxtpx="http://www.garmin.com/xmlschemas/TrackPointExtension/v1">
  <metadata>
    <link href="http://www.compegps.com">
      <text>CompeGPS TEAM, SL</text>
    </link>
    <time>2012-11-03T21:32:45Z</time>
    <bounds maxlat="43.116512" maxlon="0.960429" minlat="43.097669" minlon="0.936208"/>
  </metadata>
<wpt lat="43.103843" lon="0.960314">
<ele>295</ele>
<name>Salies-du-Salat</name>
</wpt>
<wpt lat="43.105640" lon="0.960429">
<ele>345</ele>
<name>Ruines</name>
</wpt>
<wpt lat="43.114001" lon="0.942650">
<ele>430</ele>
<name>Poueigh</name>
</wpt>
<wpt lat="43.114748" lon="0.952344">
<ele>375</ele>
<name>Carrefour</name>
</wpt>
<wpt lat="43.111592" lon="0.937442">
<ele>343</ele>
<name>Montsaunes D69</name>
</wpt>
<wpt lat="43.105688" lon="0.939789">
<ele>365</ele>
<name>Croisement D117</name>
</wpt>
<wpt lat="43.098469" lon="0.944373">
<ele>370</ele>
<name>Les Bourdasses</name>
</wpt>
<wpt lat="43.099526" lon="0.951133">
<ele>335</ele>
<name>Carrefour vers D13d</name>
</wpt>
  <trk>
    <name>Salies-du-salat</name>
    <trkseg>
      <trkpt lat="43.103843" lon="0.960314">
        <ele>322.7</ele>
        <time>2012-11-02T10:58:59Z</time>
        <name>Salies-du-Salat</name>
      </trkpt>
      <trkpt lat="43.103939" lon="0.960241">
        <ele>323.1</ele>
        <time>2012-11-02T11:02:31Z</time>
      </trkpt>
      <trkpt lat="43.104069" lon="0.960261">
        <ele>323.6</ele>
        <time>2012-11-02T11:02:43Z</time>
      </trkpt>
      <trkpt lat="43.104234" lon="0.960196">
        <ele>323.6</ele>
        <time>2012-11-02T11:03:02Z</time>
      </trkpt>
      <trkpt lat="43.104372" lon="0.960019">
        <ele>324.6</ele>
        <time>2012-11-02T11:03:20Z</time>
      </trkpt>
      <trkpt lat="43.104388" lon="0.959899">
        <ele>324.6</ele>
        <time>2012-11-02T11:03:35Z</time>
      </trkpt>
      <trkpt lat="43.104358" lon="0.959802">
        <ele>324.6</ele>
        <time>2012-11-02T11:03:47Z</time>
      </trkpt>
      <trkpt lat="43.104346" lon="0.959667">
        <ele>324.6</ele>
        <time>2012-11-02T11:03:59Z</time>
      </trkpt>
      <trkpt lat="43.104359" lon="0.959459">
        <ele>323.6</ele>
        <time>2012-11-02T11:04:58Z</time>
      </trkpt>
      <trkpt lat="43.104362" lon="0.959293">
        <ele>323.6</ele>
        <time>2012-11-02T11:05:11Z</time>
      </trkpt>
      <trkpt lat="43.104348" lon="0.959110">
        <ele>323.6</ele>
        <time>2012-11-02T11:05:23Z</time>
      </trkpt>
      <trkpt lat="43.104335" lon="0.958874">
        <ele>323.6</ele>
        <time>2012-11-02T11:05:35Z</time>
      </trkpt>
      <trkpt lat="43.104334" lon="0.958741">
        <ele>324.1</ele>
        <time>2012-11-02T11:05:43Z</time>
      </trkpt>
      <trkpt lat="43.104337" lon="0.958618">
        <ele>323.6</ele>
        <time>2012-11-02T11:05:52Z</time>
      </trkpt>
      <trkpt lat="43.104389" lon="0.958501">
        <ele>323.6</ele>
        <time>2012-11-02T11:06:03Z</time>
      </trkpt>
      <trkpt lat="43.104494" lon="0.958534">
        <ele>323.6</ele>
        <time>2012-11-02T11:06:16Z</time>
      </trkpt>
      <trkpt lat="43.104586" lon="0.958624">
        <ele>323.6</ele>
        <time>2012-11-02T11:06:37Z</time>
      </trkpt>
      <trkpt lat="43.104681" lon="0.958628">
        <ele>323.6</ele>
        <time>2012-11-02T11:06:49Z</time>
      </trkpt>
      <trkpt lat="43.104779" lon="0.958661">
        <ele>323.1</ele>
        <time>2012-11-02T11:07:00Z</time>
      </trkpt>
      <trkpt lat="43.104876" lon="0.958704">
        <ele>324.1</ele>
        <time>2012-11-02T11:07:12Z</time>
      </trkpt>
      <trkpt lat="43.104982" lon="0.958700">
        <ele>324.1</ele>
        <time>2012-11-02T11:07:28Z</time>
      </trkpt>
      <trkpt lat="43.105116" lon="0.958745">
        <ele>324.1</ele>
        <time>2012-11-02T11:07:41Z</time>
      </trkpt>
      <trkpt lat="43.105228" lon="0.958767">
        <ele>324.6</ele>
        <time>2012-11-02T11:07:51Z</time>
      </trkpt>
      <trkpt lat="43.105336" lon="0.958700">
        <ele>324.6</ele>
        <time>2012-11-02T11:08:02Z</time>
      </trkpt>
      <trkpt lat="43.105418" lon="0.958600">
        <ele>324.6</ele>
        <time>2012-11-02T11:08:13Z</time>
      </trkpt>
      <trkpt lat="43.105487" lon="0.958501">
        <ele>324.6</ele>
        <time>2012-11-02T11:08:23Z</time>
      </trkpt>
      <trkpt lat="43.105562" lon="0.958389">
        <ele>324.6</ele>
        <time>2012-11-02T11:08:34Z</time>
      </trkpt>
      <trkpt lat="43.105633" lon="0.958284">
        <ele>324.6</ele>
        <time>2012-11-02T11:08:44Z</time>
      </trkpt>
      <trkpt lat="43.105702" lon="0.958167">
        <ele>325.1</ele>
        <time>2012-11-02T11:08:55Z</time>
      </trkpt>
      <trkpt lat="43.105783" lon="0.958093">
        <ele>325.1</ele>
        <time>2012-11-02T11:09:08Z</time>
      </trkpt>
      <trkpt lat="43.105850" lon="0.958199">
        <ele>326.5</ele>
        <time>2012-11-02T11:09:21Z</time>
      </trkpt>
      <trkpt lat="43.105944" lon="0.958270">
        <ele>328.0</ele>
        <time>2012-11-02T11:09:35Z</time>
      </trkpt>
      <trkpt lat="43.106044" lon="0.958333">
        <ele>329.9</ele>
        <time>2012-11-02T11:09:52Z</time>
      </trkpt>
      <trkpt lat="43.106161" lon="0.958377">
        <ele>333.2</ele>
        <time>2012-11-02T11:10:13Z</time>
      </trkpt>
      <trkpt lat="43.106307" lon="0.958507">
        <ele>337.1</ele>
        <time>2012-11-02T11:10:33Z</time>
      </trkpt>
      <trkpt lat="43.106443" lon="0.958620">
        <ele>340.4</ele>
        <time>2012-11-02T11:10:56Z</time>
      </trkpt>
      <trkpt lat="43.106533" lon="0.958692">
        <ele>342.9</ele>
        <time>2012-11-02T11:11:12Z</time>
      </trkpt>
      <trkpt lat="43.106606" lon="0.958816">
        <ele>345.2</ele>
        <time>2012-11-02T11:11:29Z</time>
      </trkpt>
      <trkpt lat="43.106518" lon="0.958920">
        <ele>345.7</ele>
        <time>2012-11-02T11:11:43Z</time>
      </trkpt>
      <trkpt lat="43.106476" lon="0.959132">
        <ele>347.6</ele>
        <time>2012-11-02T11:11:59Z</time>
      </trkpt>
      <trkpt lat="43.106411" lon="0.959311">
        <ele>350.5</ele>
        <time>2012-11-02T11:12:15Z</time>
      </trkpt>
      <trkpt lat="43.106323" lon="0.959480">
        <ele>353.4</ele>
        <time>2012-11-02T11:12:31Z</time>
      </trkpt>
      <trkpt lat="43.106218" lon="0.959583">
        <ele>355.8</ele>
        <time>2012-11-02T11:12:44Z</time>
      </trkpt>
      <trkpt lat="43.106143" lon="0.959711">
        <ele>357.8</ele>
        <time>2012-11-02T11:12:54Z</time>
      </trkpt>
      <trkpt lat="43.106107" lon="0.959851">
        <ele>359.7</ele>
        <time>2012-11-02T11:13:03Z</time>
      </trkpt>
      <trkpt lat="43.106065" lon="0.959982">
        <ele>361.6</ele>
        <time>2012-11-02T11:13:14Z</time>
      </trkpt>
      <trkpt lat="43.106060" lon="0.960131">
        <ele>363.5</ele>
        <time>2012-11-02T11:13:34Z</time>
      </trkpt>
      <trkpt lat="43.106067" lon="0.960262">
        <ele>364.5</ele>
        <time>2012-11-02T11:13:46Z</time>
      </trkpt>
      <trkpt lat="43.105976" lon="0.960297">
        <ele>365.4</ele>
        <time>2012-11-02T11:13:58Z</time>
      </trkpt>
      <trkpt lat="43.105876" lon="0.960355">
        <ele>365.0</ele>
        <time>2012-11-02T11:16:20Z</time>
      </trkpt>
      <trkpt lat="43.105783" lon="0.960400">
        <ele>365.4</ele>
        <time>2012-11-02T11:16:29Z</time>
      </trkpt>
      <trkpt lat="43.105688" lon="0.960410">
        <ele>365.0</ele>
        <time>2012-11-02T11:16:38Z</time>
      </trkpt>
      <trkpt lat="43.105640" lon="0.960429">
        <ele>365.0</ele>
        <time>2012-11-02T11:17:08Z</time>
        <name>Ruines</name>
      </trkpt>
      <trkpt lat="43.105763" lon="0.960426">
        <ele>365.9</ele>
        <time>2012-11-02T11:17:19Z</time>
      </trkpt>
      <trkpt lat="43.105865" lon="0.960404">
        <ele>365.0</ele>
        <time>2012-11-02T11:17:30Z</time>
      </trkpt>
      <trkpt lat="43.105973" lon="0.960346">
        <ele>365.0</ele>
        <time>2012-11-02T11:17:42Z</time>
      </trkpt>
      <trkpt lat="43.106087" lon="0.960276">
        <ele>364.0</ele>
        <time>2012-11-02T11:17:55Z</time>
      </trkpt>
      <trkpt lat="43.106088" lon="0.960153">
        <ele>363.0</ele>
        <time>2012-11-02T11:18:07Z</time>
      </trkpt>
      <trkpt lat="43.106086" lon="0.960012">
        <ele>361.1</ele>
        <time>2012-11-02T11:18:19Z</time>
      </trkpt>
      <trkpt lat="43.106137" lon="0.959873">
        <ele>358.2</ele>
        <time>2012-11-02T11:18:30Z</time>
      </trkpt>
      <trkpt lat="43.106154" lon="0.959699">
        <ele>356.3</ele>
        <time>2012-11-02T11:18:42Z</time>
      </trkpt>
      <trkpt lat="43.106258" lon="0.959576">
        <ele>353.4</ele>
        <time>2012-11-02T11:18:56Z</time>
      </trkpt>
      <trkpt lat="43.106349" lon="0.959431">
        <ele>350.5</ele>
        <time>2012-11-02T11:19:12Z</time>
      </trkpt>
      <trkpt lat="43.106448" lon="0.959216">
        <ele>346.2</ele>
        <time>2012-11-02T11:19:30Z</time>
      </trkpt>
      <trkpt lat="43.106501" lon="0.959045">
        <ele>343.3</ele>
        <time>2012-11-02T11:19:45Z</time>
      </trkpt>
      <trkpt lat="43.106610" lon="0.958857">
        <ele>341.4</ele>
        <time>2012-11-02T11:20:01Z</time>
      </trkpt>
      <trkpt lat="43.106704" lon="0.958921">
        <ele>343.3</ele>
        <time>2012-11-02T11:20:11Z</time>
      </trkpt>
      <trkpt lat="43.106750" lon="0.959051">
        <ele>345.2</ele>
        <time>2012-11-02T11:20:23Z</time>
      </trkpt>
      <trkpt lat="43.106791" lon="0.959206">
        <ele>346.2</ele>
        <time>2012-11-02T11:20:33Z</time>
      </trkpt>
      <trkpt lat="43.106824" lon="0.959354">
        <ele>346.7</ele>
        <time>2012-11-02T11:20:44Z</time>
      </trkpt>
      <trkpt lat="43.106954" lon="0.959423">
        <ele>345.2</ele>
        <time>2012-11-02T11:20:57Z</time>
      </trkpt>
      <trkpt lat="43.107039" lon="0.959417">
        <ele>344.8</ele>
        <time>2012-11-02T11:21:26Z</time>
      </trkpt>
      <trkpt lat="43.107131" lon="0.959364">
        <ele>344.8</ele>
        <time>2012-11-02T11:21:37Z</time>
      </trkpt>
      <trkpt lat="43.107226" lon="0.959310">
        <ele>344.8</ele>
        <time>2012-11-02T11:21:48Z</time>
      </trkpt>
      <trkpt lat="43.107294" lon="0.959241">
        <ele>344.8</ele>
        <time>2012-11-02T11:22:07Z</time>
      </trkpt>
      <trkpt lat="43.107403" lon="0.959136">
        <ele>345.2</ele>
        <time>2012-11-02T11:22:18Z</time>
      </trkpt>
      <trkpt lat="43.107494" lon="0.959012">
        <ele>345.7</ele>
        <time>2012-11-02T11:22:30Z</time>
      </trkpt>
      <trkpt lat="43.107562" lon="0.958889">
        <ele>346.2</ele>
        <time>2012-11-02T11:22:42Z</time>
      </trkpt>
      <trkpt lat="43.107606" lon="0.958763">
        <ele>346.7</ele>
        <time>2012-11-02T11:22:53Z</time>
      </trkpt>
      <trkpt lat="43.107650" lon="0.958640">
        <ele>347.2</ele>
        <time>2012-11-02T11:23:04Z</time>
      </trkpt>
      <trkpt lat="43.107654" lon="0.958508">
        <ele>347.6</ele>
        <time>2012-11-02T11:23:15Z</time>
      </trkpt>
      <trkpt lat="43.107706" lon="0.958373">
        <ele>348.6</ele>
        <time>2012-11-02T11:23:26Z</time>
      </trkpt>
      <trkpt lat="43.107732" lon="0.958239">
        <ele>349.6</ele>
        <time>2012-11-02T11:23:38Z</time>
      </trkpt>
      <trkpt lat="43.107758" lon="0.958119">
        <ele>351.0</ele>
        <time>2012-11-02T11:23:49Z</time>
      </trkpt>
      <trkpt lat="43.107784" lon="0.957959">
        <ele>352.0</ele>
        <time>2012-11-02T11:24:03Z</time>
      </trkpt>
      <trkpt lat="43.107859" lon="0.957806">
        <ele>353.4</ele>
        <time>2012-11-02T11:24:17Z</time>
      </trkpt>
      <trkpt lat="43.107910" lon="0.957665">
        <ele>354.9</ele>
        <time>2012-11-02T11:24:29Z</time>
      </trkpt>
      <trkpt lat="43.107971" lon="0.957555">
        <ele>355.3</ele>
        <time>2012-11-02T11:24:39Z</time>
      </trkpt>
      <trkpt lat="43.108030" lon="0.957453">
        <ele>356.3</ele>
        <time>2012-11-02T11:24:49Z</time>
      </trkpt>
      <trkpt lat="43.108129" lon="0.957409">
        <ele>357.8</ele>
        <time>2012-11-02T11:25:00Z</time>
      </trkpt>
      <trkpt lat="43.108232" lon="0.957369">
        <ele>358.7</ele>
        <time>2012-11-02T11:25:09Z</time>
      </trkpt>
      <trkpt lat="43.108332" lon="0.957331">
        <ele>360.1</ele>
        <time>2012-11-02T11:25:18Z</time>
      </trkpt>
      <trkpt lat="43.108425" lon="0.957278">
        <ele>361.6</ele>
        <time>2012-11-02T11:25:27Z</time>
      </trkpt>
      <trkpt lat="43.108531" lon="0.957223">
        <ele>363.5</ele>
        <time>2012-11-02T11:25:36Z</time>
      </trkpt>
      <trkpt lat="43.108621" lon="0.957197">
        <ele>365.4</ele>
        <time>2012-11-02T11:25:44Z</time>
      </trkpt>
      <trkpt lat="43.108717" lon="0.957156">
        <ele>366.9</ele>
        <time>2012-11-02T11:25:52Z</time>
      </trkpt>
      <trkpt lat="43.108809" lon="0.957118">
        <ele>368.8</ele>
        <time>2012-11-02T11:26:00Z</time>
      </trkpt>
      <trkpt lat="43.108904" lon="0.957066">
        <ele>369.8</ele>
        <time>2012-11-02T11:26:08Z</time>
      </trkpt>
      <trkpt lat="43.108996" lon="0.957024">
        <ele>371.7</ele>
        <time>2012-11-02T11:26:16Z</time>
      </trkpt>
      <trkpt lat="43.109086" lon="0.956980">
        <ele>372.6</ele>
        <time>2012-11-02T11:26:23Z</time>
      </trkpt>
      <trkpt lat="43.109179" lon="0.956922">
        <ele>373.6</ele>
        <time>2012-11-02T11:26:31Z</time>
      </trkpt>
      <trkpt lat="43.109270" lon="0.956874">
        <ele>375.0</ele>
        <time>2012-11-02T11:26:39Z</time>
      </trkpt>
      <trkpt lat="43.109376" lon="0.956841">
        <ele>376.0</ele>
        <time>2012-11-02T11:26:47Z</time>
      </trkpt>
      <trkpt lat="43.109468" lon="0.956801">
        <ele>376.5</ele>
        <time>2012-11-02T11:26:55Z</time>
      </trkpt>
      <trkpt lat="43.109564" lon="0.956800">
        <ele>377.9</ele>
        <time>2012-11-02T11:27:03Z</time>
      </trkpt>
      <trkpt lat="43.109675" lon="0.956799">
        <ele>378.4</ele>
        <time>2012-11-02T11:27:12Z</time>
      </trkpt>
      <trkpt lat="43.109727" lon="0.956732">
        <ele>378.9</ele>
        <time>2012-11-02T11:28:31Z</time>
      </trkpt>
      <trkpt lat="43.109792" lon="0.956627">
        <ele>379.4</ele>
        <time>2012-11-02T11:28:40Z</time>
      </trkpt>
      <trkpt lat="43.109850" lon="0.956527">
        <ele>380.3</ele>
        <time>2012-11-02T11:28:48Z</time>
      </trkpt>
      <trkpt lat="43.109896" lon="0.956392">
        <ele>381.3</ele>
        <time>2012-11-02T11:28:55Z</time>
      </trkpt>
      <trkpt lat="43.109972" lon="0.956288">
        <ele>382.7</ele>
        <time>2012-11-02T11:29:03Z</time>
      </trkpt>
      <trkpt lat="43.109993" lon="0.956154">
        <ele>384.2</ele>
        <time>2012-11-02T11:29:12Z</time>
      </trkpt>
      <trkpt lat="43.110032" lon="0.956016">
        <ele>385.1</ele>
        <time>2012-11-02T11:29:22Z</time>
      </trkpt>
      <trkpt lat="43.110053" lon="0.955862">
        <ele>386.6</ele>
        <time>2012-11-02T11:29:31Z</time>
      </trkpt>
      <trkpt lat="43.110062" lon="0.955708">
        <ele>387.1</ele>
        <time>2012-11-02T11:29:39Z</time>
      </trkpt>
      <trkpt lat="43.110074" lon="0.955577">
        <ele>387.5</ele>
        <time>2012-11-02T11:29:47Z</time>
      </trkpt>
      <trkpt lat="43.110102" lon="0.955420">
        <ele>388.0</ele>
        <time>2012-11-02T11:29:57Z</time>
      </trkpt>
      <trkpt lat="43.110101" lon="0.955274">
        <ele>387.5</ele>
        <time>2012-11-02T11:30:06Z</time>
      </trkpt>
      <trkpt lat="43.110117" lon="0.955121">
        <ele>388.0</ele>
        <time>2012-11-02T11:30:17Z</time>
      </trkpt>
      <trkpt lat="43.110123" lon="0.954967">
        <ele>388.0</ele>
        <time>2012-11-02T11:30:28Z</time>
      </trkpt>
      <trkpt lat="43.110147" lon="0.954815">
        <ele>388.5</ele>
        <time>2012-11-02T11:30:36Z</time>
      </trkpt>
      <trkpt lat="43.110162" lon="0.954651">
        <ele>388.5</ele>
        <time>2012-11-02T11:30:46Z</time>
      </trkpt>
      <trkpt lat="43.110178" lon="0.954493">
        <ele>389.0</ele>
        <time>2012-11-02T11:30:55Z</time>
      </trkpt>
      <trkpt lat="43.110199" lon="0.954361">
        <ele>390.0</ele>
        <time>2012-11-02T11:31:06Z</time>
      </trkpt>
      <trkpt lat="43.110236" lon="0.954223">
        <ele>390.0</ele>
        <time>2012-11-02T11:31:17Z</time>
      </trkpt>
      <trkpt lat="43.110273" lon="0.954078">
        <ele>390.0</ele>
        <time>2012-11-02T11:31:28Z</time>
      </trkpt>
      <trkpt lat="43.110327" lon="0.953899">
        <ele>389.5</ele>
        <time>2012-11-02T11:31:54Z</time>
      </trkpt>
      <trkpt lat="43.110388" lon="0.953738">
        <ele>388.5</ele>
        <time>2012-11-02T11:32:10Z</time>
      </trkpt>
      <trkpt lat="43.110406" lon="0.953573">
        <ele>388.0</ele>
        <time>2012-11-02T11:32:23Z</time>
      </trkpt>
      <trkpt lat="43.110461" lon="0.953400">
        <ele>387.1</ele>
        <time>2012-11-02T11:32:36Z</time>
      </trkpt>
      <trkpt lat="43.110514" lon="0.953208">
        <ele>386.6</ele>
        <time>2012-11-02T11:32:51Z</time>
      </trkpt>
      <trkpt lat="43.110555" lon="0.952998">
        <ele>387.1</ele>
        <time>2012-11-02T11:33:07Z</time>
      </trkpt>
      <trkpt lat="43.110650" lon="0.952815">
        <ele>387.1</ele>
        <time>2012-11-02T11:33:21Z</time>
      </trkpt>
      <trkpt lat="43.110825" lon="0.952615">
        <ele>387.1</ele>
        <time>2012-11-02T11:34:22Z</time>
      </trkpt>
      <trkpt lat="43.110914" lon="0.952516">
        <ele>387.5</ele>
        <time>2012-11-02T11:34:35Z</time>
      </trkpt>
      <trkpt lat="43.111030" lon="0.952394">
        <ele>389.0</ele>
        <time>2012-11-02T11:35:03Z</time>
      </trkpt>
      <trkpt lat="43.111116" lon="0.952273">
        <ele>390.4</ele>
        <time>2012-11-02T11:35:15Z</time>
      </trkpt>
      <trkpt lat="43.111206" lon="0.952176">
        <ele>391.4</ele>
        <time>2012-11-02T11:35:26Z</time>
      </trkpt>
      <trkpt lat="43.111304" lon="0.952102">
        <ele>391.9</ele>
        <time>2012-11-02T11:35:34Z</time>
      </trkpt>
      <trkpt lat="43.111396" lon="0.952024">
        <ele>391.9</ele>
        <time>2012-11-02T11:35:45Z</time>
      </trkpt>
      <trkpt lat="43.111483" lon="0.951950">
        <ele>392.4</ele>
        <time>2012-11-02T11:35:54Z</time>
      </trkpt>
      <trkpt lat="43.111554" lon="0.951845">
        <ele>391.9</ele>
        <time>2012-11-02T11:36:06Z</time>
      </trkpt>
      <trkpt lat="43.111636" lon="0.951762">
        <ele>391.4</ele>
        <time>2012-11-02T11:36:30Z</time>
      </trkpt>
      <trkpt lat="43.111724" lon="0.951681">
        <ele>390.9</ele>
        <time>2012-11-02T11:36:41Z</time>
      </trkpt>
      <trkpt lat="43.111810" lon="0.951596">
        <ele>390.9</ele>
        <time>2012-11-02T11:36:51Z</time>
      </trkpt>
      <trkpt lat="43.111890" lon="0.951515">
        <ele>390.9</ele>
        <time>2012-11-02T11:37:01Z</time>
      </trkpt>
      <trkpt lat="43.111987" lon="0.951437">
        <ele>390.4</ele>
        <time>2012-11-02T11:37:11Z</time>
      </trkpt>
      <trkpt lat="43.112075" lon="0.951350">
        <ele>390.0</ele>
        <time>2012-11-02T11:37:18Z</time>
      </trkpt>
      <trkpt lat="43.112161" lon="0.951262">
        <ele>390.0</ele>
        <time>2012-11-02T11:37:28Z</time>
      </trkpt>
      <trkpt lat="43.112249" lon="0.951183">
        <ele>390.4</ele>
        <time>2012-11-02T11:37:34Z</time>
      </trkpt>
      <trkpt lat="43.112332" lon="0.951105">
        <ele>390.4</ele>
        <time>2012-11-02T11:37:44Z</time>
      </trkpt>
      <trkpt lat="43.112418" lon="0.951025">
        <ele>390.0</ele>
        <time>2012-11-02T11:37:51Z</time>
      </trkpt>
      <trkpt lat="43.112504" lon="0.950958">
        <ele>390.4</ele>
        <time>2012-11-02T11:38:00Z</time>
      </trkpt>
      <trkpt lat="43.112591" lon="0.950875">
        <ele>390.4</ele>
        <time>2012-11-02T11:38:10Z</time>
      </trkpt>
      <trkpt lat="43.112636" lon="0.950748">
        <ele>390.4</ele>
        <time>2012-11-02T11:38:21Z</time>
      </trkpt>
      <trkpt lat="43.112567" lon="0.950591">
        <ele>390.9</ele>
        <time>2012-11-02T11:38:49Z</time>
      </trkpt>
      <trkpt lat="43.112505" lon="0.950459">
        <ele>391.4</ele>
        <time>2012-11-02T11:39:05Z</time>
      </trkpt>
      <trkpt lat="43.112434" lon="0.950320">
        <ele>391.9</ele>
        <time>2012-11-02T11:39:17Z</time>
      </trkpt>
      <trkpt lat="43.112435" lon="0.950172">
        <ele>392.4</ele>
        <time>2012-11-02T11:39:29Z</time>
      </trkpt>
      <trkpt lat="43.112494" lon="0.950071">
        <ele>392.4</ele>
        <time>2012-11-02T11:39:38Z</time>
      </trkpt>
      <trkpt lat="43.112540" lon="0.949938">
        <ele>391.9</ele>
        <time>2012-11-02T11:39:48Z</time>
      </trkpt>
      <trkpt lat="43.112589" lon="0.949819">
        <ele>391.4</ele>
        <time>2012-11-02T11:39:57Z</time>
      </trkpt>
      <trkpt lat="43.112641" lon="0.949692">
        <ele>391.9</ele>
        <time>2012-11-02T11:40:06Z</time>
      </trkpt>
      <trkpt lat="43.112679" lon="0.949562">
        <ele>390.9</ele>
        <time>2012-11-02T11:40:15Z</time>
      </trkpt>
      <trkpt lat="43.112709" lon="0.949419">
        <ele>391.4</ele>
        <time>2012-11-02T11:40:25Z</time>
      </trkpt>
      <trkpt lat="43.112734" lon="0.949274">
        <ele>391.4</ele>
        <time>2012-11-02T11:40:36Z</time>
      </trkpt>
      <trkpt lat="43.112755" lon="0.949117">
        <ele>391.9</ele>
        <time>2012-11-02T11:40:48Z</time>
      </trkpt>
      <trkpt lat="43.112768" lon="0.948938">
        <ele>391.9</ele>
        <time>2012-11-02T11:41:01Z</time>
      </trkpt>
      <trkpt lat="43.112777" lon="0.948765">
        <ele>391.9</ele>
        <time>2012-11-02T11:41:14Z</time>
      </trkpt>
      <trkpt lat="43.112782" lon="0.948609">
        <ele>392.4</ele>
        <time>2012-11-02T11:41:25Z</time>
      </trkpt>
      <trkpt lat="43.112818" lon="0.948445">
        <ele>392.8</ele>
        <time>2012-11-02T11:41:37Z</time>
      </trkpt>
      <trkpt lat="43.112845" lon="0.948249">
        <ele>393.8</ele>
        <time>2012-11-02T11:41:56Z</time>
      </trkpt>
      <trkpt lat="43.112891" lon="0.948089">
        <ele>395.2</ele>
        <time>2012-11-02T11:42:07Z</time>
      </trkpt>
      <trkpt lat="43.112926" lon="0.947952">
        <ele>397.6</ele>
        <time>2012-11-02T11:42:17Z</time>
      </trkpt>
      <trkpt lat="43.112943" lon="0.947806">
        <ele>400.0</ele>
        <time>2012-11-02T11:42:29Z</time>
      </trkpt>
      <trkpt lat="43.112970" lon="0.947604">
        <ele>402.9</ele>
        <time>2012-11-02T11:42:43Z</time>
      </trkpt>
      <trkpt lat="43.112991" lon="0.947377">
        <ele>404.9</ele>
        <time>2012-11-02T11:42:58Z</time>
      </trkpt>
      <trkpt lat="43.112995" lon="0.947150">
        <ele>406.3</ele>
        <time>2012-11-02T11:43:12Z</time>
      </trkpt>
      <trkpt lat="43.113025" lon="0.946905">
        <ele>408.7</ele>
        <time>2012-11-02T11:43:28Z</time>
      </trkpt>
      <trkpt lat="43.113051" lon="0.946692">
        <ele>409.2</ele>
        <time>2012-11-02T11:43:45Z</time>
      </trkpt>
      <trkpt lat="43.113123" lon="0.946433">
        <ele>410.6</ele>
        <time>2012-11-02T11:44:06Z</time>
      </trkpt>
      <trkpt lat="43.113149" lon="0.946250">
        <ele>411.6</ele>
        <time>2012-11-02T11:44:20Z</time>
      </trkpt>
      <trkpt lat="43.113177" lon="0.945956">
        <ele>414.0</ele>
        <time>2012-11-02T11:44:37Z</time>
      </trkpt>
      <trkpt lat="43.113243" lon="0.945742">
        <ele>415.4</ele>
        <time>2012-11-02T11:44:51Z</time>
      </trkpt>
      <trkpt lat="43.113295" lon="0.945564">
        <ele>416.4</ele>
        <time>2012-11-02T11:45:04Z</time>
      </trkpt>
      <trkpt lat="43.113324" lon="0.945363">
        <ele>418.3</ele>
        <time>2012-11-02T11:45:18Z</time>
      </trkpt>
      <trkpt lat="43.113356" lon="0.945121">
        <ele>420.2</ele>
        <time>2012-11-02T11:45:38Z</time>
      </trkpt>
      <trkpt lat="43.113403" lon="0.944861">
        <ele>421.7</ele>
        <time>2012-11-02T11:45:51Z</time>
      </trkpt>
      <trkpt lat="43.113452" lon="0.944680">
        <ele>424.6</ele>
        <time>2012-11-02T11:46:05Z</time>
      </trkpt>
      <trkpt lat="43.113513" lon="0.944538">
        <ele>427.0</ele>
        <time>2012-11-02T11:46:19Z</time>
      </trkpt>
      <trkpt lat="43.113568" lon="0.944364">
        <ele>429.9</ele>
        <time>2012-11-02T11:46:33Z</time>
      </trkpt>
      <trkpt lat="43.113639" lon="0.944209">
        <ele>433.2</ele>
        <time>2012-11-02T11:46:46Z</time>
      </trkpt>
      <trkpt lat="43.113695" lon="0.944070">
        <ele>435.1</ele>
        <time>2012-11-02T11:46:59Z</time>
      </trkpt>
      <trkpt lat="43.113794" lon="0.943952">
        <ele>437.5</ele>
        <time>2012-11-02T11:47:11Z</time>
      </trkpt>
      <trkpt lat="43.113817" lon="0.943793">
        <ele>439.0</ele>
        <time>2012-11-02T11:47:23Z</time>
      </trkpt>
      <trkpt lat="43.113838" lon="0.943643">
        <ele>439.5</ele>
        <time>2012-11-02T11:47:37Z</time>
      </trkpt>
      <trkpt lat="43.113878" lon="0.943506">
        <ele>439.9</ele>
        <time>2012-11-02T11:47:48Z</time>
      </trkpt>
      <trkpt lat="43.113926" lon="0.943349">
        <ele>441.9</ele>
        <time>2012-11-02T11:48:04Z</time>
      </trkpt>
      <trkpt lat="43.113964" lon="0.943190">
        <ele>442.3</ele>
        <time>2012-11-02T11:48:17Z</time>
      </trkpt>
      <trkpt lat="43.114008" lon="0.943006">
        <ele>442.3</ele>
        <time>2012-11-02T11:48:50Z</time>
      </trkpt>
      <trkpt lat="43.114008" lon="0.942825">
        <ele>443.3</ele>
        <time>2012-11-02T11:49:46Z</time>
      </trkpt>
      <trkpt lat="43.114001" lon="0.942650">
        <ele>441.9</ele>
        <time>2012-11-02T11:50:25Z</time>
        <name>Poueigh</name>
      </trkpt>
      <trkpt lat="43.113988" lon="0.942745">
        <ele>442.3</ele>
        <time>2012-11-02T11:54:20Z</time>
      </trkpt>
      <trkpt lat="43.114005" lon="0.942883">
        <ele>442.3</ele>
        <time>2012-11-02T11:54:32Z</time>
      </trkpt>
      <trkpt lat="43.113988" lon="0.943033">
        <ele>441.9</ele>
        <time>2012-11-02T11:54:45Z</time>
      </trkpt>
      <trkpt lat="43.113948" lon="0.943186">
        <ele>441.9</ele>
        <time>2012-11-02T11:54:58Z</time>
      </trkpt>
      <trkpt lat="43.113912" lon="0.943375">
        <ele>440.9</ele>
        <time>2012-11-02T11:55:14Z</time>
      </trkpt>
      <trkpt lat="43.113865" lon="0.943542">
        <ele>439.9</ele>
        <time>2012-11-02T11:55:26Z</time>
      </trkpt>
      <trkpt lat="43.113804" lon="0.943727">
        <ele>438.5</ele>
        <time>2012-11-02T11:55:40Z</time>
      </trkpt>
      <trkpt lat="43.113782" lon="0.943880">
        <ele>436.6</ele>
        <time>2012-11-02T11:55:54Z</time>
      </trkpt>
      <trkpt lat="43.113724" lon="0.944018">
        <ele>434.6</ele>
        <time>2012-11-02T11:56:02Z</time>
      </trkpt>
      <trkpt lat="43.113669" lon="0.944138">
        <ele>432.2</ele>
        <time>2012-11-02T11:56:09Z</time>
      </trkpt>
      <trkpt lat="43.113611" lon="0.944292">
        <ele>430.3</ele>
        <time>2012-11-02T11:56:17Z</time>
      </trkpt>
      <trkpt lat="43.113555" lon="0.944441">
        <ele>427.4</ele>
        <time>2012-11-02T11:56:23Z</time>
      </trkpt>
      <trkpt lat="43.113509" lon="0.944586">
        <ele>425.0</ele>
        <time>2012-11-02T11:56:29Z</time>
      </trkpt>
      <trkpt lat="43.113467" lon="0.944733">
        <ele>422.6</ele>
        <time>2012-11-02T11:56:35Z</time>
      </trkpt>
      <trkpt lat="43.113408" lon="0.944872">
        <ele>420.2</ele>
        <time>2012-11-02T11:56:42Z</time>
      </trkpt>
      <trkpt lat="43.113351" lon="0.945041">
        <ele>418.8</ele>
        <time>2012-11-02T11:56:50Z</time>
      </trkpt>
      <trkpt lat="43.113333" lon="0.945206">
        <ele>416.9</ele>
        <time>2012-11-02T11:56:58Z</time>
      </trkpt>
      <trkpt lat="43.113320" lon="0.945373">
        <ele>416.9</ele>
        <time>2012-11-02T11:57:05Z</time>
      </trkpt>
      <trkpt lat="43.113290" lon="0.945552">
        <ele>415.4</ele>
        <time>2012-11-02T11:57:13Z</time>
      </trkpt>
      <trkpt lat="43.113253" lon="0.945711">
        <ele>413.5</ele>
        <time>2012-11-02T11:57:20Z</time>
      </trkpt>
      <trkpt lat="43.113216" lon="0.945874">
        <ele>412.5</ele>
        <time>2012-11-02T11:57:28Z</time>
      </trkpt>
      <trkpt lat="43.113175" lon="0.946009">
        <ele>411.1</ele>
        <time>2012-11-02T11:57:36Z</time>
      </trkpt>
      <trkpt lat="43.113152" lon="0.946156">
        <ele>410.1</ele>
        <time>2012-11-02T11:57:44Z</time>
      </trkpt>
      <trkpt lat="43.113128" lon="0.946305">
        <ele>408.7</ele>
        <time>2012-11-02T11:57:52Z</time>
      </trkpt>
      <trkpt lat="43.113093" lon="0.946501">
        <ele>407.7</ele>
        <time>2012-11-02T11:58:01Z</time>
      </trkpt>
      <trkpt lat="43.113052" lon="0.946675">
        <ele>406.3</ele>
        <time>2012-11-02T11:58:09Z</time>
      </trkpt>
      <trkpt lat="43.113041" lon="0.946838">
        <ele>405.8</ele>
        <time>2012-11-02T11:58:18Z</time>
      </trkpt>
      <trkpt lat="43.113023" lon="0.947017">
        <ele>404.4</ele>
        <time>2012-11-02T11:58:28Z</time>
      </trkpt>
      <trkpt lat="43.113005" lon="0.947211">
        <ele>402.9</ele>
        <time>2012-11-02T11:58:37Z</time>
      </trkpt>
      <trkpt lat="43.112971" lon="0.947410">
        <ele>401.0</ele>
        <time>2012-11-02T11:58:47Z</time>
      </trkpt>
      <trkpt lat="43.112948" lon="0.947609">
        <ele>399.6</ele>
        <time>2012-11-02T11:58:57Z</time>
      </trkpt>
      <trkpt lat="43.112938" lon="0.947786">
        <ele>397.2</ele>
        <time>2012-11-02T11:59:06Z</time>
      </trkpt>
      <trkpt lat="43.112911" lon="0.947931">
        <ele>394.3</ele>
        <time>2012-11-02T11:59:15Z</time>
      </trkpt>
      <trkpt lat="43.112875" lon="0.948086">
        <ele>392.4</ele>
        <time>2012-11-02T11:59:24Z</time>
      </trkpt>
      <trkpt lat="43.112845" lon="0.948239">
        <ele>390.4</ele>
        <time>2012-11-02T11:59:32Z</time>
      </trkpt>
      <trkpt lat="43.112811" lon="0.948429">
        <ele>389.5</ele>
        <time>2012-11-02T11:59:42Z</time>
      </trkpt>
      <trkpt lat="43.112800" lon="0.948658">
        <ele>388.5</ele>
        <time>2012-11-02T11:59:53Z</time>
      </trkpt>
      <trkpt lat="43.112786" lon="0.948851">
        <ele>388.0</ele>
        <time>2012-11-02T12:00:02Z</time>
      </trkpt>
      <trkpt lat="43.112766" lon="0.949040">
        <ele>387.5</ele>
        <time>2012-11-02T12:00:11Z</time>
      </trkpt>
      <trkpt lat="43.112748" lon="0.949215">
        <ele>388.0</ele>
        <time>2012-11-02T12:00:19Z</time>
      </trkpt>
      <trkpt lat="43.112729" lon="0.949354">
        <ele>387.1</ele>
        <time>2012-11-02T12:00:26Z</time>
      </trkpt>
      <trkpt lat="43.112715" lon="0.949491">
        <ele>387.1</ele>
        <time>2012-11-02T12:00:33Z</time>
      </trkpt>
      <trkpt lat="43.112693" lon="0.949624">
        <ele>387.1</ele>
        <time>2012-11-02T12:00:40Z</time>
      </trkpt>
      <trkpt lat="43.112650" lon="0.949749">
        <ele>387.1</ele>
        <time>2012-11-02T12:00:47Z</time>
      </trkpt>
      <trkpt lat="43.112588" lon="0.949879">
        <ele>387.5</ele>
        <time>2012-11-02T12:00:54Z</time>
      </trkpt>
      <trkpt lat="43.112524" lon="0.949996">
        <ele>388.0</ele>
        <time>2012-11-02T12:01:01Z</time>
      </trkpt>
      <trkpt lat="43.112460" lon="0.950128">
        <ele>388.0</ele>
        <time>2012-11-02T12:01:09Z</time>
      </trkpt>
      <trkpt lat="43.112410" lon="0.950251">
        <ele>388.0</ele>
        <time>2012-11-02T12:01:16Z</time>
      </trkpt>
      <trkpt lat="43.112454" lon="0.950359">
        <ele>387.5</ele>
        <time>2012-11-02T12:01:23Z</time>
      </trkpt>
      <trkpt lat="43.112518" lon="0.950468">
        <ele>386.1</ele>
        <time>2012-11-02T12:01:31Z</time>
      </trkpt>
      <trkpt lat="43.112582" lon="0.950599">
        <ele>386.1</ele>
        <time>2012-11-02T12:01:40Z</time>
      </trkpt>
      <trkpt lat="43.112649" lon="0.950712">
        <ele>385.6</ele>
        <time>2012-11-02T12:01:49Z</time>
      </trkpt>
      <trkpt lat="43.112733" lon="0.950846">
        <ele>385.1</ele>
        <time>2012-11-02T12:01:58Z</time>
      </trkpt>
      <trkpt lat="43.112815" lon="0.950964">
        <ele>385.1</ele>
        <time>2012-11-02T12:02:07Z</time>
      </trkpt>
      <trkpt lat="43.112913" lon="0.951082">
        <ele>385.1</ele>
        <time>2012-11-02T12:02:17Z</time>
      </trkpt>
      <trkpt lat="43.113018" lon="0.951166">
        <ele>385.1</ele>
        <time>2012-11-02T12:02:26Z</time>
      </trkpt>
      <trkpt lat="43.113108" lon="0.951243">
        <ele>385.6</ele>
        <time>2012-11-02T12:02:34Z</time>
      </trkpt>
      <trkpt lat="43.113210" lon="0.951299">
        <ele>386.1</ele>
        <time>2012-11-02T12:02:42Z</time>
      </trkpt>
      <trkpt lat="43.113306" lon="0.951349">
        <ele>386.1</ele>
        <time>2012-11-02T12:02:53Z</time>
      </trkpt>
      <trkpt lat="43.113405" lon="0.951388">
        <ele>386.6</ele>
        <time>2012-11-02T12:03:01Z</time>
      </trkpt>
      <trkpt lat="43.113500" lon="0.951437">
        <ele>386.1</ele>
        <time>2012-11-02T12:03:09Z</time>
      </trkpt>
      <trkpt lat="43.113594" lon="0.951502">
        <ele>385.6</ele>
        <time>2012-11-02T12:03:17Z</time>
      </trkpt>
      <trkpt lat="43.113682" lon="0.951578">
        <ele>386.1</ele>
        <time>2012-11-02T12:03:26Z</time>
      </trkpt>
      <trkpt lat="43.113768" lon="0.951634">
        <ele>385.6</ele>
        <time>2012-11-02T12:03:34Z</time>
      </trkpt>
      <trkpt lat="43.113869" lon="0.951724">
        <ele>385.1</ele>
        <time>2012-11-02T12:03:43Z</time>
      </trkpt>
      <trkpt lat="43.113957" lon="0.951817">
        <ele>385.1</ele>
        <time>2012-11-02T12:03:51Z</time>
      </trkpt>
      <trkpt lat="43.114027" lon="0.951902">
        <ele>385.1</ele>
        <time>2012-11-02T12:03:58Z</time>
      </trkpt>
      <trkpt lat="43.114093" lon="0.951986">
        <ele>384.7</ele>
        <time>2012-11-02T12:04:06Z</time>
      </trkpt>
      <trkpt lat="43.114171" lon="0.952058">
        <ele>384.7</ele>
        <time>2012-11-02T12:04:14Z</time>
      </trkpt>
      <trkpt lat="43.114268" lon="0.952131">
        <ele>384.7</ele>
        <time>2012-11-02T12:04:22Z</time>
      </trkpt>
      <trkpt lat="43.114358" lon="0.952184">
        <ele>384.2</ele>
        <time>2012-11-02T12:04:30Z</time>
      </trkpt>
      <trkpt lat="43.114453" lon="0.952224">
        <ele>384.7</ele>
        <time>2012-11-02T12:04:38Z</time>
      </trkpt>
      <trkpt lat="43.114552" lon="0.952283">
        <ele>384.7</ele>
        <time>2012-11-02T12:04:46Z</time>
      </trkpt>
      <trkpt lat="43.114650" lon="0.952353">
        <ele>385.1</ele>
        <time>2012-11-02T12:04:54Z</time>
      </trkpt>
      <trkpt lat="43.114748" lon="0.952344">
        <ele>384.2</ele>
        <time>2012-11-02T12:05:02Z</time>
        <name>Carrefour</name>
      </trkpt>
      <trkpt lat="43.114770" lon="0.952208">
        <ele>384.7</ele>
        <time>2012-11-02T12:05:12Z</time>
      </trkpt>
      <trkpt lat="43.114775" lon="0.952069">
        <ele>385.1</ele>
        <time>2012-11-02T12:05:21Z</time>
      </trkpt>
      <trkpt lat="43.114800" lon="0.951911">
        <ele>385.1</ele>
        <time>2012-11-02T12:05:33Z</time>
      </trkpt>
      <trkpt lat="43.114828" lon="0.951697">
        <ele>385.1</ele>
        <time>2012-11-02T12:06:02Z</time>
      </trkpt>
      <trkpt lat="43.114845" lon="0.951528">
        <ele>385.1</ele>
        <time>2012-11-02T12:06:14Z</time>
      </trkpt>
      <trkpt lat="43.114837" lon="0.951344">
        <ele>385.1</ele>
        <time>2012-11-02T12:06:26Z</time>
      </trkpt>
      <trkpt lat="43.114847" lon="0.951178">
        <ele>384.2</ele>
        <time>2012-11-02T12:06:36Z</time>
      </trkpt>
      <trkpt lat="43.114858" lon="0.951004">
        <ele>384.2</ele>
        <time>2012-11-02T12:06:47Z</time>
      </trkpt>
      <trkpt lat="43.114873" lon="0.950842">
        <ele>384.2</ele>
        <time>2012-11-02T12:06:59Z</time>
      </trkpt>
      <trkpt lat="43.114913" lon="0.950610">
        <ele>384.7</ele>
        <time>2012-11-02T12:07:12Z</time>
      </trkpt>
      <trkpt lat="43.114930" lon="0.950412">
        <ele>384.2</ele>
        <time>2012-11-02T12:07:25Z</time>
      </trkpt>
      <trkpt lat="43.114950" lon="0.950209">
        <ele>384.2</ele>
        <time>2012-11-02T12:07:36Z</time>
      </trkpt>
      <trkpt lat="43.114979" lon="0.950035">
        <ele>383.2</ele>
        <time>2012-11-02T12:07:46Z</time>
      </trkpt>
      <trkpt lat="43.115014" lon="0.949854">
        <ele>383.2</ele>
        <time>2012-11-02T12:07:57Z</time>
      </trkpt>
      <trkpt lat="43.115042" lon="0.949662">
        <ele>382.7</ele>
        <time>2012-11-02T12:08:09Z</time>
      </trkpt>
      <trkpt lat="43.115058" lon="0.949443">
        <ele>382.7</ele>
        <time>2012-11-02T12:08:21Z</time>
      </trkpt>
      <trkpt lat="43.115062" lon="0.949214">
        <ele>382.3</ele>
        <time>2012-11-02T12:08:35Z</time>
      </trkpt>
      <trkpt lat="43.115057" lon="0.949022">
        <ele>382.3</ele>
        <time>2012-11-02T12:08:46Z</time>
      </trkpt>
      <trkpt lat="43.115039" lon="0.948837">
        <ele>382.3</ele>
        <time>2012-11-02T12:08:57Z</time>
      </trkpt>
      <trkpt lat="43.115014" lon="0.948662">
        <ele>381.8</ele>
        <time>2012-11-02T12:09:06Z</time>
      </trkpt>
      <trkpt lat="43.114986" lon="0.948478">
        <ele>381.8</ele>
        <time>2012-11-02T12:09:18Z</time>
      </trkpt>
      <trkpt lat="43.114954" lon="0.948291">
        <ele>381.3</ele>
        <time>2012-11-02T12:09:29Z</time>
      </trkpt>
      <trkpt lat="43.114924" lon="0.948069">
        <ele>382.3</ele>
        <time>2012-11-02T12:09:44Z</time>
      </trkpt>
      <trkpt lat="43.114861" lon="0.947851">
        <ele>383.2</ele>
        <time>2012-11-02T12:10:00Z</time>
      </trkpt>
      <trkpt lat="43.114871" lon="0.947652">
        <ele>385.1</ele>
        <time>2012-11-02T12:10:14Z</time>
      </trkpt>
      <trkpt lat="43.114896" lon="0.947474">
        <ele>386.6</ele>
        <time>2012-11-02T12:10:27Z</time>
      </trkpt>
      <trkpt lat="43.114903" lon="0.947271">
        <ele>387.5</ele>
        <time>2012-11-02T12:10:40Z</time>
      </trkpt>
      <trkpt lat="43.114917" lon="0.947070">
        <ele>388.0</ele>
        <time>2012-11-02T12:10:54Z</time>
      </trkpt>
      <trkpt lat="43.114928" lon="0.946859">
        <ele>388.5</ele>
        <time>2012-11-02T12:11:05Z</time>
      </trkpt>
      <trkpt lat="43.114939" lon="0.946673">
        <ele>389.0</ele>
        <time>2012-11-02T12:11:17Z</time>
      </trkpt>
      <trkpt lat="43.114947" lon="0.946480">
        <ele>389.0</ele>
        <time>2012-11-02T12:11:28Z</time>
      </trkpt>
      <trkpt lat="43.114966" lon="0.946303">
        <ele>390.0</ele>
        <time>2012-11-02T12:11:39Z</time>
      </trkpt>
      <trkpt lat="43.114975" lon="0.946108">
        <ele>390.0</ele>
        <time>2012-11-02T12:11:49Z</time>
      </trkpt>
      <trkpt lat="43.114990" lon="0.945935">
        <ele>390.0</ele>
        <time>2012-11-02T12:11:59Z</time>
      </trkpt>
      <trkpt lat="43.115006" lon="0.945772">
        <ele>390.9</ele>
        <time>2012-11-02T12:12:09Z</time>
      </trkpt>
      <trkpt lat="43.115025" lon="0.945599">
        <ele>390.9</ele>
        <time>2012-11-02T12:12:19Z</time>
      </trkpt>
      <trkpt lat="43.115039" lon="0.945411">
        <ele>390.4</ele>
        <time>2012-11-02T12:12:30Z</time>
      </trkpt>
      <trkpt lat="43.115058" lon="0.945247">
        <ele>390.4</ele>
        <time>2012-11-02T12:12:40Z</time>
      </trkpt>
      <trkpt lat="43.115076" lon="0.945077">
        <ele>390.0</ele>
        <time>2012-11-02T12:12:51Z</time>
      </trkpt>
      <trkpt lat="43.115104" lon="0.944905">
        <ele>390.0</ele>
        <time>2012-11-02T12:13:02Z</time>
      </trkpt>
      <trkpt lat="43.115112" lon="0.944731">
        <ele>389.0</ele>
        <time>2012-11-02T12:13:13Z</time>
      </trkpt>
      <trkpt lat="43.115141" lon="0.944507">
        <ele>388.0</ele>
        <time>2012-11-02T12:13:26Z</time>
      </trkpt>
      <trkpt lat="43.115148" lon="0.944284">
        <ele>386.6</ele>
        <time>2012-11-02T12:13:41Z</time>
      </trkpt>
      <trkpt lat="43.115191" lon="0.943997">
        <ele>386.1</ele>
        <time>2012-11-02T12:13:58Z</time>
      </trkpt>
      <trkpt lat="43.115249" lon="0.943766">
        <ele>383.7</ele>
        <time>2012-11-02T12:14:12Z</time>
      </trkpt>
      <trkpt lat="43.115291" lon="0.943519">
        <ele>382.7</ele>
        <time>2012-11-02T12:14:25Z</time>
      </trkpt>
      <trkpt lat="43.115278" lon="0.943254">
        <ele>380.8</ele>
        <time>2012-11-02T12:14:39Z</time>
      </trkpt>
      <trkpt lat="43.115289" lon="0.943040">
        <ele>378.9</ele>
        <time>2012-11-02T12:14:53Z</time>
      </trkpt>
      <trkpt lat="43.115300" lon="0.942789">
        <ele>377.5</ele>
        <time>2012-11-02T12:15:07Z</time>
      </trkpt>
      <trkpt lat="43.115334" lon="0.942582">
        <ele>376.0</ele>
        <time>2012-11-02T12:15:19Z</time>
      </trkpt>
      <trkpt lat="43.115385" lon="0.942359">
        <ele>374.1</ele>
        <time>2012-11-02T12:15:30Z</time>
      </trkpt>
      <trkpt lat="43.115409" lon="0.942200">
        <ele>372.2</ele>
        <time>2012-11-02T12:15:41Z</time>
      </trkpt>
      <trkpt lat="43.115435" lon="0.942005">
        <ele>370.2</ele>
        <time>2012-11-02T12:15:52Z</time>
      </trkpt>
      <trkpt lat="43.115439" lon="0.941850">
        <ele>369.3</ele>
        <time>2012-11-02T12:16:03Z</time>
      </trkpt>
      <trkpt lat="43.115453" lon="0.941676">
        <ele>368.3</ele>
        <time>2012-11-02T12:16:13Z</time>
      </trkpt>
      <trkpt lat="43.115471" lon="0.941434">
        <ele>367.4</ele>
        <time>2012-11-02T12:16:24Z</time>
      </trkpt>
      <trkpt lat="43.115513" lon="0.941244">
        <ele>366.9</ele>
        <time>2012-11-02T12:16:35Z</time>
      </trkpt>
      <trkpt lat="43.115602" lon="0.941037">
        <ele>365.9</ele>
        <time>2012-11-02T12:16:47Z</time>
      </trkpt>
      <trkpt lat="43.115642" lon="0.940831">
        <ele>364.5</ele>
        <time>2012-11-02T12:16:58Z</time>
      </trkpt>
      <trkpt lat="43.115685" lon="0.940564">
        <ele>362.5</ele>
        <time>2012-11-02T12:17:15Z</time>
      </trkpt>
      <trkpt lat="43.115720" lon="0.940294">
        <ele>361.1</ele>
        <time>2012-11-02T12:17:30Z</time>
      </trkpt>
      <trkpt lat="43.115744" lon="0.940068">
        <ele>359.2</ele>
        <time>2012-11-02T12:17:42Z</time>
      </trkpt>
      <trkpt lat="43.115801" lon="0.939859">
        <ele>356.8</ele>
        <time>2012-11-02T12:17:56Z</time>
      </trkpt>
      <trkpt lat="43.115867" lon="0.939629">
        <ele>353.9</ele>
        <time>2012-11-02T12:18:10Z</time>
      </trkpt>
      <trkpt lat="43.115903" lon="0.939395">
        <ele>352.5</ele>
        <time>2012-11-02T12:18:21Z</time>
      </trkpt>
      <trkpt lat="43.115923" lon="0.939205">
        <ele>351.0</ele>
        <time>2012-11-02T12:18:31Z</time>
      </trkpt>
      <trkpt lat="43.115958" lon="0.939018">
        <ele>350.1</ele>
        <time>2012-11-02T12:18:42Z</time>
      </trkpt>
      <trkpt lat="43.116007" lon="0.938842">
        <ele>348.1</ele>
        <time>2012-11-02T12:18:51Z</time>
      </trkpt>
      <trkpt lat="43.116048" lon="0.938686">
        <ele>346.2</ele>
        <time>2012-11-02T12:18:59Z</time>
      </trkpt>
      <trkpt lat="43.116067" lon="0.938517">
        <ele>344.8</ele>
        <time>2012-11-02T12:19:09Z</time>
      </trkpt>
      <trkpt lat="43.116174" lon="0.938452">
        <ele>344.3</ele>
        <time>2012-11-02T12:19:21Z</time>
      </trkpt>
      <trkpt lat="43.116315" lon="0.938366">
        <ele>343.3</ele>
        <time>2012-11-02T12:19:33Z</time>
      </trkpt>
      <trkpt lat="43.116429" lon="0.938270">
        <ele>342.4</ele>
        <time>2012-11-02T12:19:48Z</time>
      </trkpt>
      <trkpt lat="43.116512" lon="0.938169">
        <ele>341.9</ele>
        <time>2012-11-02T12:20:01Z</time>
      </trkpt>
      <trkpt lat="43.116507" lon="0.938037">
        <ele>341.9</ele>
        <time>2012-11-02T12:20:11Z</time>
      </trkpt>
      <trkpt lat="43.116462" lon="0.937898">
        <ele>341.4</ele>
        <time>2012-11-02T12:20:22Z</time>
      </trkpt>
      <trkpt lat="43.116422" lon="0.937764">
        <ele>340.9</ele>
        <time>2012-11-02T12:20:32Z</time>
      </trkpt>
      <trkpt lat="43.116373" lon="0.937627">
        <ele>340.4</ele>
        <time>2012-11-02T12:20:41Z</time>
      </trkpt>
      <trkpt lat="43.116339" lon="0.937489">
        <ele>340.0</ele>
        <time>2012-11-02T12:20:50Z</time>
      </trkpt>
      <trkpt lat="43.116307" lon="0.937362">
        <ele>340.0</ele>
        <time>2012-11-02T12:20:58Z</time>
      </trkpt>
      <trkpt lat="43.116273" lon="0.937241">
        <ele>340.0</ele>
        <time>2012-11-02T12:21:06Z</time>
      </trkpt>
      <trkpt lat="43.116239" lon="0.937125">
        <ele>340.0</ele>
        <time>2012-11-02T12:21:14Z</time>
      </trkpt>
      <trkpt lat="43.116208" lon="0.937000">
        <ele>340.0</ele>
        <time>2012-11-02T12:21:23Z</time>
      </trkpt>
      <trkpt lat="43.116159" lon="0.936881">
        <ele>339.5</ele>
        <time>2012-11-02T12:21:31Z</time>
      </trkpt>
      <trkpt lat="43.116109" lon="0.936779">
        <ele>339.5</ele>
        <time>2012-11-02T12:21:40Z</time>
      </trkpt>
      <trkpt lat="43.116021" lon="0.936694">
        <ele>339.5</ele>
        <time>2012-11-02T12:21:49Z</time>
      </trkpt>
      <trkpt lat="43.115918" lon="0.936670">
        <ele>339.0</ele>
        <time>2012-11-02T12:21:57Z</time>
      </trkpt>
      <trkpt lat="43.115819" lon="0.936649">
        <ele>339.0</ele>
        <time>2012-11-02T12:22:06Z</time>
      </trkpt>
      <trkpt lat="43.115713" lon="0.936623">
        <ele>339.0</ele>
        <time>2012-11-02T12:22:15Z</time>
      </trkpt>
      <trkpt lat="43.115602" lon="0.936602">
        <ele>339.0</ele>
        <time>2012-11-02T12:22:24Z</time>
      </trkpt>
      <trkpt lat="43.115498" lon="0.936572">
        <ele>339.0</ele>
        <time>2012-11-02T12:22:33Z</time>
      </trkpt>
      <trkpt lat="43.115398" lon="0.936533">
        <ele>339.0</ele>
        <time>2012-11-02T12:22:41Z</time>
      </trkpt>
      <trkpt lat="43.115298" lon="0.936483">
        <ele>339.5</ele>
        <time>2012-11-02T12:22:49Z</time>
      </trkpt>
      <trkpt lat="43.115190" lon="0.936436">
        <ele>339.0</ele>
        <time>2012-11-02T12:22:58Z</time>
      </trkpt>
      <trkpt lat="43.115087" lon="0.936397">
        <ele>339.0</ele>
        <time>2012-11-02T12:23:06Z</time>
      </trkpt>
      <trkpt lat="43.114992" lon="0.936355">
        <ele>339.5</ele>
        <time>2012-11-02T12:23:14Z</time>
      </trkpt>
      <trkpt lat="43.114901" lon="0.936305">
        <ele>339.5</ele>
        <time>2012-11-02T12:23:23Z</time>
      </trkpt>
      <trkpt lat="43.114799" lon="0.936260">
        <ele>340.0</ele>
        <time>2012-11-02T12:23:31Z</time>
      </trkpt>
      <trkpt lat="43.114704" lon="0.936232">
        <ele>340.9</ele>
        <time>2012-11-02T12:23:38Z</time>
      </trkpt>
      <trkpt lat="43.114610" lon="0.936217">
        <ele>340.4</ele>
        <time>2012-11-02T12:23:45Z</time>
      </trkpt>
      <trkpt lat="43.114508" lon="0.936212">
        <ele>340.9</ele>
        <time>2012-11-02T12:23:52Z</time>
      </trkpt>
      <trkpt lat="43.114414" lon="0.936223">
        <ele>341.4</ele>
        <time>2012-11-02T12:23:59Z</time>
      </trkpt>
      <trkpt lat="43.114312" lon="0.936252">
        <ele>341.9</ele>
        <time>2012-11-02T12:24:07Z</time>
      </trkpt>
      <trkpt lat="43.114240" lon="0.936208">
        <ele>342.4</ele>
        <time>2012-11-02T12:24:20Z</time>
      </trkpt>
      <trkpt lat="43.114122" lon="0.936233">
        <ele>343.3</ele>
        <time>2012-11-02T12:24:29Z</time>
      </trkpt>
      <trkpt lat="43.114015" lon="0.936267">
        <ele>343.8</ele>
        <time>2012-11-02T12:24:37Z</time>
      </trkpt>
      <trkpt lat="43.113918" lon="0.936286">
        <ele>344.3</ele>
        <time>2012-11-02T12:24:44Z</time>
      </trkpt>
      <trkpt lat="43.113820" lon="0.936306">
        <ele>344.8</ele>
        <time>2012-11-02T12:24:51Z</time>
      </trkpt>
      <trkpt lat="43.113725" lon="0.936326">
        <ele>345.2</ele>
        <time>2012-11-02T12:24:58Z</time>
      </trkpt>
      <trkpt lat="43.113617" lon="0.936351">
        <ele>345.7</ele>
        <time>2012-11-02T12:25:06Z</time>
      </trkpt>
      <trkpt lat="43.113516" lon="0.936367">
        <ele>345.7</ele>
        <time>2012-11-02T12:25:13Z</time>
      </trkpt>
      <trkpt lat="43.113410" lon="0.936411">
        <ele>346.7</ele>
        <time>2012-11-02T12:25:22Z</time>
      </trkpt>
      <trkpt lat="43.113311" lon="0.936451">
        <ele>347.2</ele>
        <time>2012-11-02T12:25:30Z</time>
      </trkpt>
      <trkpt lat="43.113210" lon="0.936478">
        <ele>347.6</ele>
        <time>2012-11-02T12:25:38Z</time>
      </trkpt>
      <trkpt lat="43.113116" lon="0.936503">
        <ele>348.1</ele>
        <time>2012-11-02T12:25:46Z</time>
      </trkpt>
      <trkpt lat="43.113024" lon="0.936553">
        <ele>348.6</ele>
        <time>2012-11-02T12:25:53Z</time>
      </trkpt>
      <trkpt lat="43.112930" lon="0.936614">
        <ele>348.6</ele>
        <time>2012-11-02T12:26:00Z</time>
      </trkpt>
      <trkpt lat="43.112835" lon="0.936658">
        <ele>348.6</ele>
        <time>2012-11-02T12:26:07Z</time>
      </trkpt>
      <trkpt lat="43.112749" lon="0.936698">
        <ele>348.1</ele>
        <time>2012-11-02T12:26:15Z</time>
      </trkpt>
      <trkpt lat="43.112667" lon="0.936759">
        <ele>348.6</ele>
        <time>2012-11-02T12:26:24Z</time>
      </trkpt>
      <trkpt lat="43.112560" lon="0.936813">
        <ele>349.6</ele>
        <time>2012-11-02T12:26:37Z</time>
      </trkpt>
      <trkpt lat="43.112457" lon="0.936850">
        <ele>350.1</ele>
        <time>2012-11-02T12:26:46Z</time>
      </trkpt>
      <trkpt lat="43.112363" lon="0.936920">
        <ele>350.1</ele>
        <time>2012-11-02T12:27:13Z</time>
      </trkpt>
      <trkpt lat="43.112247" lon="0.937037">
        <ele>350.1</ele>
        <time>2012-11-02T12:27:40Z</time>
      </trkpt>
      <trkpt lat="43.112141" lon="0.937057">
        <ele>350.1</ele>
        <time>2012-11-02T12:28:01Z</time>
      </trkpt>
      <trkpt lat="43.112053" lon="0.937150">
        <ele>350.5</ele>
        <time>2012-11-02T12:28:13Z</time>
      </trkpt>
      <trkpt lat="43.112008" lon="0.937219">
        <ele>350.5</ele>
        <time>2012-11-02T12:28:32Z</time>
      </trkpt>
      <trkpt lat="43.111913" lon="0.937322">
        <ele>350.5</ele>
        <time>2012-11-02T12:28:45Z</time>
      </trkpt>
      <trkpt lat="43.111798" lon="0.937353">
        <ele>351.0</ele>
        <time>2012-11-02T12:28:54Z</time>
      </trkpt>
      <trkpt lat="43.111681" lon="0.937374">
        <ele>351.5</ele>
        <time>2012-11-02T12:29:02Z</time>
      </trkpt>
      <trkpt lat="43.111592" lon="0.937442">
        <ele>351.0</ele>
        <time>2012-11-02T12:29:10Z</time>
        <name>Montsaunes D69</name>
      </trkpt>
      <trkpt lat="43.111545" lon="0.937567">
        <ele>351.5</ele>
        <time>2012-11-02T12:29:19Z</time>
      </trkpt>
      <trkpt lat="43.111497" lon="0.937708">
        <ele>351.0</ele>
        <time>2012-11-02T12:29:27Z</time>
      </trkpt>
      <trkpt lat="43.111437" lon="0.937815">
        <ele>351.5</ele>
        <time>2012-11-02T12:29:35Z</time>
      </trkpt>
      <trkpt lat="43.111385" lon="0.937942">
        <ele>351.5</ele>
        <time>2012-11-02T12:29:44Z</time>
      </trkpt>
      <trkpt lat="43.111314" lon="0.938061">
        <ele>352.0</ele>
        <time>2012-11-02T12:29:52Z</time>
      </trkpt>
      <trkpt lat="43.111258" lon="0.938200">
        <ele>352.0</ele>
        <time>2012-11-02T12:30:00Z</time>
      </trkpt>
      <trkpt lat="43.111171" lon="0.938305">
        <ele>352.0</ele>
        <time>2012-11-02T12:30:11Z</time>
      </trkpt>
      <trkpt lat="43.111120" lon="0.938462">
        <ele>352.5</ele>
        <time>2012-11-02T12:30:20Z</time>
      </trkpt>
      <trkpt lat="43.111066" lon="0.938590">
        <ele>352.5</ele>
        <time>2012-11-02T12:30:28Z</time>
      </trkpt>
      <trkpt lat="43.110981" lon="0.938702">
        <ele>352.5</ele>
        <time>2012-11-02T12:30:36Z</time>
      </trkpt>
      <trkpt lat="43.110930" lon="0.938817">
        <ele>352.9</ele>
        <time>2012-11-02T12:30:43Z</time>
      </trkpt>
      <trkpt lat="43.110887" lon="0.938935">
        <ele>353.4</ele>
        <time>2012-11-02T12:30:50Z</time>
      </trkpt>
      <trkpt lat="43.110839" lon="0.939068">
        <ele>353.9</ele>
        <time>2012-11-02T12:30:58Z</time>
      </trkpt>
      <trkpt lat="43.110781" lon="0.939187">
        <ele>354.4</ele>
        <time>2012-11-02T12:31:06Z</time>
      </trkpt>
      <trkpt lat="43.110730" lon="0.939314">
        <ele>354.4</ele>
        <time>2012-11-02T12:31:14Z</time>
      </trkpt>
      <trkpt lat="43.110673" lon="0.939418">
        <ele>354.4</ele>
        <time>2012-11-02T12:31:21Z</time>
      </trkpt>
      <trkpt lat="43.110643" lon="0.939570">
        <ele>354.4</ele>
        <time>2012-11-02T12:31:29Z</time>
      </trkpt>
      <trkpt lat="43.110591" lon="0.939695">
        <ele>354.9</ele>
        <time>2012-11-02T12:31:38Z</time>
      </trkpt>
      <trkpt lat="43.110547" lon="0.939828">
        <ele>354.9</ele>
        <time>2012-11-02T12:31:46Z</time>
      </trkpt>
      <trkpt lat="43.110518" lon="0.939976">
        <ele>355.3</ele>
        <time>2012-11-02T12:31:54Z</time>
      </trkpt>
      <trkpt lat="43.110488" lon="0.940117">
        <ele>355.8</ele>
        <time>2012-11-02T12:32:02Z</time>
      </trkpt>
      <trkpt lat="43.110456" lon="0.940264">
        <ele>356.3</ele>
        <time>2012-11-02T12:32:10Z</time>
      </trkpt>
      <trkpt lat="43.110423" lon="0.940406">
        <ele>356.3</ele>
        <time>2012-11-02T12:32:18Z</time>
      </trkpt>
      <trkpt lat="43.110389" lon="0.940536">
        <ele>356.3</ele>
        <time>2012-11-02T12:32:26Z</time>
      </trkpt>
      <trkpt lat="43.110353" lon="0.940671">
        <ele>356.8</ele>
        <time>2012-11-02T12:32:34Z</time>
      </trkpt>
      <trkpt lat="43.110322" lon="0.940813">
        <ele>357.3</ele>
        <time>2012-11-02T12:32:41Z</time>
      </trkpt>
      <trkpt lat="43.110293" lon="0.940940">
        <ele>357.3</ele>
        <time>2012-11-02T12:32:48Z</time>
      </trkpt>
      <trkpt lat="43.110271" lon="0.941070">
        <ele>357.8</ele>
        <time>2012-11-02T12:32:55Z</time>
      </trkpt>
      <trkpt lat="43.110249" lon="0.941200">
        <ele>358.2</ele>
        <time>2012-11-02T12:33:02Z</time>
      </trkpt>
      <trkpt lat="43.110223" lon="0.941334">
        <ele>358.7</ele>
        <time>2012-11-02T12:33:09Z</time>
      </trkpt>
      <trkpt lat="43.110213" lon="0.941476">
        <ele>358.7</ele>
        <time>2012-11-02T12:33:17Z</time>
      </trkpt>
      <trkpt lat="43.110201" lon="0.941616">
        <ele>359.2</ele>
        <time>2012-11-02T12:33:25Z</time>
      </trkpt>
      <trkpt lat="43.110194" lon="0.941747">
        <ele>359.7</ele>
        <time>2012-11-02T12:33:32Z</time>
      </trkpt>
      <trkpt lat="43.110141" lon="0.941874">
        <ele>360.1</ele>
        <time>2012-11-02T12:33:40Z</time>
      </trkpt>
      <trkpt lat="43.110088" lon="0.942012">
        <ele>360.1</ele>
        <time>2012-11-02T12:33:48Z</time>
      </trkpt>
      <trkpt lat="43.110053" lon="0.942141">
        <ele>360.6</ele>
        <time>2012-11-02T12:33:55Z</time>
      </trkpt>
      <trkpt lat="43.110038" lon="0.942284">
        <ele>361.1</ele>
        <time>2012-11-02T12:34:02Z</time>
      </trkpt>
      <trkpt lat="43.110030" lon="0.942433">
        <ele>362.1</ele>
        <time>2012-11-02T12:34:09Z</time>
      </trkpt>
      <trkpt lat="43.110016" lon="0.942570">
        <ele>362.5</ele>
        <time>2012-11-02T12:34:16Z</time>
      </trkpt>
      <trkpt lat="43.109994" lon="0.942706">
        <ele>363.0</ele>
        <time>2012-11-02T12:34:24Z</time>
      </trkpt>
      <trkpt lat="43.109976" lon="0.942842">
        <ele>364.0</ele>
        <time>2012-11-02T12:34:38Z</time>
      </trkpt>
      <trkpt lat="43.109970" lon="0.942984">
        <ele>365.0</ele>
        <time>2012-11-02T12:34:48Z</time>
      </trkpt>
      <trkpt lat="43.109956" lon="0.943109">
        <ele>365.4</ele>
        <time>2012-11-02T12:35:24Z</time>
      </trkpt>
      <trkpt lat="43.109945" lon="0.943237">
        <ele>365.9</ele>
        <time>2012-11-02T12:35:34Z</time>
      </trkpt>
      <trkpt lat="43.109936" lon="0.943386">
        <ele>366.9</ele>
        <time>2012-11-02T12:35:45Z</time>
      </trkpt>
      <trkpt lat="43.109861" lon="0.943387">
        <ele>367.4</ele>
        <time>2012-11-02T12:36:48Z</time>
      </trkpt>
      <trkpt lat="43.109779" lon="0.943448">
        <ele>367.8</ele>
        <time>2012-11-02T12:36:58Z</time>
      </trkpt>
      <trkpt lat="43.109698" lon="0.943512">
        <ele>368.3</ele>
        <time>2012-11-02T12:37:09Z</time>
      </trkpt>
      <trkpt lat="43.109620" lon="0.943613">
        <ele>368.8</ele>
        <time>2012-11-02T12:37:21Z</time>
      </trkpt>
      <trkpt lat="43.109574" lon="0.943770">
        <ele>369.8</ele>
        <time>2012-11-02T12:37:33Z</time>
      </trkpt>
      <trkpt lat="43.109535" lon="0.943925">
        <ele>369.8</ele>
        <time>2012-11-02T12:37:45Z</time>
      </trkpt>
      <trkpt lat="43.109491" lon="0.944067">
        <ele>371.2</ele>
        <time>2012-11-02T12:37:56Z</time>
      </trkpt>
      <trkpt lat="43.109456" lon="0.944220">
        <ele>372.2</ele>
        <time>2012-11-02T12:38:09Z</time>
      </trkpt>
      <trkpt lat="43.109421" lon="0.944343">
        <ele>373.6</ele>
        <time>2012-11-02T12:38:18Z</time>
      </trkpt>
      <trkpt lat="43.109343" lon="0.944530">
        <ele>373.1</ele>
        <time>2012-11-02T12:41:39Z</time>
      </trkpt>
      <trkpt lat="43.109318" lon="0.944676">
        <ele>373.6</ele>
        <time>2012-11-02T12:41:49Z</time>
      </trkpt>
      <trkpt lat="43.109276" lon="0.944811">
        <ele>374.6</ele>
        <time>2012-11-02T12:41:58Z</time>
      </trkpt>
      <trkpt lat="43.109237" lon="0.944938">
        <ele>375.0</ele>
        <time>2012-11-02T12:42:07Z</time>
      </trkpt>
      <trkpt lat="43.109196" lon="0.945085">
        <ele>375.5</ele>
        <time>2012-11-02T12:42:16Z</time>
      </trkpt>
      <trkpt lat="43.109159" lon="0.945236">
        <ele>375.5</ele>
        <time>2012-11-02T12:42:26Z</time>
      </trkpt>
      <trkpt lat="43.109107" lon="0.945380">
        <ele>376.0</ele>
        <time>2012-11-02T12:42:36Z</time>
      </trkpt>
      <trkpt lat="43.109079" lon="0.945500">
        <ele>376.5</ele>
        <time>2012-11-02T12:42:44Z</time>
      </trkpt>
      <trkpt lat="43.109038" lon="0.945628">
        <ele>377.0</ele>
        <time>2012-11-02T12:42:53Z</time>
      </trkpt>
      <trkpt lat="43.109016" lon="0.945757">
        <ele>377.0</ele>
        <time>2012-11-02T12:43:08Z</time>
      </trkpt>
      <trkpt lat="43.108940" lon="0.945794">
        <ele>376.0</ele>
        <time>2012-11-02T12:43:21Z</time>
      </trkpt>
      <trkpt lat="43.108855" lon="0.945717">
        <ele>374.6</ele>
        <time>2012-11-02T12:43:32Z</time>
      </trkpt>
      <trkpt lat="43.108755" lon="0.945632">
        <ele>374.1</ele>
        <time>2012-11-02T12:43:42Z</time>
      </trkpt>
      <trkpt lat="43.108651" lon="0.945522">
        <ele>373.1</ele>
        <time>2012-11-02T12:43:53Z</time>
      </trkpt>
      <trkpt lat="43.108555" lon="0.945422">
        <ele>372.2</ele>
        <time>2012-11-02T12:44:03Z</time>
      </trkpt>
      <trkpt lat="43.108482" lon="0.945327">
        <ele>372.2</ele>
        <time>2012-11-02T12:44:12Z</time>
      </trkpt>
      <trkpt lat="43.108402" lon="0.945233">
        <ele>371.7</ele>
        <time>2012-11-02T12:44:21Z</time>
      </trkpt>
      <trkpt lat="43.108312" lon="0.945145">
        <ele>371.2</ele>
        <time>2012-11-02T12:44:31Z</time>
      </trkpt>
      <trkpt lat="43.108205" lon="0.945046">
        <ele>370.2</ele>
        <time>2012-11-02T12:44:41Z</time>
      </trkpt>
      <trkpt lat="43.108121" lon="0.944937">
        <ele>369.3</ele>
        <time>2012-11-02T12:44:50Z</time>
      </trkpt>
      <trkpt lat="43.108037" lon="0.944841">
        <ele>367.4</ele>
        <time>2012-11-02T12:45:00Z</time>
      </trkpt>
      <trkpt lat="43.107955" lon="0.944760">
        <ele>365.4</ele>
        <time>2012-11-02T12:45:10Z</time>
      </trkpt>
      <trkpt lat="43.107864" lon="0.944663">
        <ele>364.0</ele>
        <time>2012-11-02T12:45:21Z</time>
      </trkpt>
      <trkpt lat="43.107819" lon="0.944621">
        <ele>364.0</ele>
        <time>2012-11-02T12:45:43Z</time>
      </trkpt>
      <trkpt lat="43.107747" lon="0.944514">
        <ele>365.0</ele>
        <time>2012-11-02T12:45:52Z</time>
      </trkpt>
      <trkpt lat="43.107673" lon="0.944426">
        <ele>366.4</ele>
        <time>2012-11-02T12:46:03Z</time>
      </trkpt>
      <trkpt lat="43.107585" lon="0.944331">
        <ele>366.9</ele>
        <time>2012-11-02T12:46:13Z</time>
      </trkpt>
      <trkpt lat="43.107503" lon="0.944233">
        <ele>368.3</ele>
        <time>2012-11-02T12:46:23Z</time>
      </trkpt>
      <trkpt lat="43.107415" lon="0.944131">
        <ele>370.2</ele>
        <time>2012-11-02T12:46:33Z</time>
      </trkpt>
      <trkpt lat="43.107347" lon="0.944022">
        <ele>371.7</ele>
        <time>2012-11-02T12:46:52Z</time>
      </trkpt>
      <trkpt lat="43.107265" lon="0.943926">
        <ele>372.6</ele>
        <time>2012-11-02T12:47:02Z</time>
      </trkpt>
      <trkpt lat="43.107192" lon="0.943823">
        <ele>373.6</ele>
        <time>2012-11-02T12:47:11Z</time>
      </trkpt>
      <trkpt lat="43.107087" lon="0.943713">
        <ele>375.5</ele>
        <time>2012-11-02T12:47:22Z</time>
      </trkpt>
      <trkpt lat="43.107042" lon="0.943558">
        <ele>376.0</ele>
        <time>2012-11-02T12:47:32Z</time>
      </trkpt>
      <trkpt lat="43.107015" lon="0.943399">
        <ele>376.0</ele>
        <time>2012-11-02T12:47:40Z</time>
      </trkpt>
      <trkpt lat="43.107001" lon="0.943246">
        <ele>376.5</ele>
        <time>2012-11-02T12:47:47Z</time>
      </trkpt>
      <trkpt lat="43.106984" lon="0.943095">
        <ele>376.0</ele>
        <time>2012-11-02T12:47:54Z</time>
      </trkpt>
      <trkpt lat="43.106953" lon="0.942958">
        <ele>376.5</ele>
        <time>2012-11-02T12:48:01Z</time>
      </trkpt>
      <trkpt lat="43.106942" lon="0.942820">
        <ele>376.0</ele>
        <time>2012-11-02T12:48:08Z</time>
      </trkpt>
      <trkpt lat="43.106929" lon="0.942680">
        <ele>377.0</ele>
        <time>2012-11-02T12:48:15Z</time>
      </trkpt>
      <trkpt lat="43.106913" lon="0.942535">
        <ele>376.5</ele>
        <time>2012-11-02T12:48:23Z</time>
      </trkpt>
      <trkpt lat="43.106906" lon="0.942364">
        <ele>377.5</ele>
        <time>2012-11-02T12:48:32Z</time>
      </trkpt>
      <trkpt lat="43.106876" lon="0.942204">
        <ele>377.5</ele>
        <time>2012-11-02T12:48:40Z</time>
      </trkpt>
      <trkpt lat="43.106831" lon="0.942065">
        <ele>377.5</ele>
        <time>2012-11-02T12:48:47Z</time>
      </trkpt>
      <trkpt lat="43.106767" lon="0.941946">
        <ele>377.5</ele>
        <time>2012-11-02T12:48:54Z</time>
      </trkpt>
      <trkpt lat="43.106688" lon="0.941851">
        <ele>377.5</ele>
        <time>2012-11-02T12:49:01Z</time>
      </trkpt>
      <trkpt lat="43.106614" lon="0.941751">
        <ele>377.9</ele>
        <time>2012-11-02T12:49:08Z</time>
      </trkpt>
      <trkpt lat="43.106551" lon="0.941666">
        <ele>377.9</ele>
        <time>2012-11-02T12:49:14Z</time>
      </trkpt>
      <trkpt lat="43.106497" lon="0.941582">
        <ele>377.9</ele>
        <time>2012-11-02T12:49:20Z</time>
      </trkpt>
      <trkpt lat="43.106437" lon="0.941487">
        <ele>378.4</ele>
        <time>2012-11-02T12:49:27Z</time>
      </trkpt>
      <trkpt lat="43.106124" lon="0.940722">
        <ele>369.7</ele>
        <time>2012-11-02T12:52:30Z</time>
      </trkpt>
      <trkpt lat="43.105847" lon="0.940076">
        <ele>370.0</ele>
        <time>2012-11-02T12:52:38Z</time>
      </trkpt>
      <trkpt lat="43.105688" lon="0.939789">
        <ele>368.9</ele>
        <time>2012-11-02T12:53:45Z</time>
        <name>Carrefour D117</name>
      </trkpt>
      <trkpt lat="43.105562" lon="0.939717">
        <ele>368.7</ele>
        <time>2012-11-02T12:55:33Z</time>
      </trkpt>
      <trkpt lat="43.105049" lon="0.939737">
        <ele>398.6</ele>
        <time>2012-11-02T12:55:42Z</time>
      </trkpt>
      <trkpt lat="43.104952" lon="0.939759">
        <ele>399.1</ele>
        <time>2012-11-02T12:55:51Z</time>
      </trkpt>
      <trkpt lat="43.104858" lon="0.939777">
        <ele>400.0</ele>
        <time>2012-11-02T12:56:00Z</time>
      </trkpt>
      <trkpt lat="43.104751" lon="0.939787">
        <ele>399.1</ele>
        <time>2012-11-02T12:56:09Z</time>
      </trkpt>
      <trkpt lat="43.104650" lon="0.939765">
        <ele>399.6</ele>
        <time>2012-11-02T12:56:17Z</time>
      </trkpt>
      <trkpt lat="43.104530" lon="0.939757">
        <ele>400.0</ele>
        <time>2012-11-02T12:56:26Z</time>
      </trkpt>
      <trkpt lat="43.104395" lon="0.939742">
        <ele>402.0</ele>
        <time>2012-11-02T12:56:36Z</time>
      </trkpt>
      <trkpt lat="43.104264" lon="0.939756">
        <ele>403.9</ele>
        <time>2012-11-02T12:56:46Z</time>
      </trkpt>
      <trkpt lat="43.104119" lon="0.939795">
        <ele>404.9</ele>
        <time>2012-11-02T12:56:56Z</time>
      </trkpt>
      <trkpt lat="43.104000" lon="0.939843">
        <ele>405.3</ele>
        <time>2012-11-02T12:57:06Z</time>
      </trkpt>
      <trkpt lat="43.103885" lon="0.939887">
        <ele>406.8</ele>
        <time>2012-11-02T12:57:16Z</time>
      </trkpt>
      <trkpt lat="43.103756" lon="0.939903">
        <ele>407.3</ele>
        <time>2012-11-02T12:57:24Z</time>
      </trkpt>
      <trkpt lat="43.103621" lon="0.939875">
        <ele>408.2</ele>
        <time>2012-11-02T12:57:32Z</time>
      </trkpt>
      <trkpt lat="43.103519" lon="0.939863">
        <ele>408.7</ele>
        <time>2012-11-02T12:57:39Z</time>
      </trkpt>
      <trkpt lat="43.103418" lon="0.939856">
        <ele>408.7</ele>
        <time>2012-11-02T12:57:47Z</time>
      </trkpt>
      <trkpt lat="43.103325" lon="0.939796">
        <ele>409.2</ele>
        <time>2012-11-02T12:57:55Z</time>
      </trkpt>
      <trkpt lat="43.103187" lon="0.939712">
        <ele>409.2</ele>
        <time>2012-11-02T12:58:08Z</time>
      </trkpt>
      <trkpt lat="43.103044" lon="0.939629">
        <ele>408.2</ele>
        <time>2012-11-02T12:58:20Z</time>
      </trkpt>
      <trkpt lat="43.102918" lon="0.939569">
        <ele>407.7</ele>
        <time>2012-11-02T12:58:30Z</time>
      </trkpt>
      <trkpt lat="43.102815" lon="0.939500">
        <ele>407.7</ele>
        <time>2012-11-02T12:58:39Z</time>
      </trkpt>
      <trkpt lat="43.102703" lon="0.939493">
        <ele>407.3</ele>
        <time>2012-11-02T12:58:48Z</time>
      </trkpt>
      <trkpt lat="43.102590" lon="0.939500">
        <ele>407.3</ele>
        <time>2012-11-02T12:58:56Z</time>
      </trkpt>
      <trkpt lat="43.102477" lon="0.939499">
        <ele>407.3</ele>
        <time>2012-11-02T12:59:04Z</time>
      </trkpt>
      <trkpt lat="43.102365" lon="0.939509">
        <ele>407.7</ele>
        <time>2012-11-02T12:59:12Z</time>
      </trkpt>
      <trkpt lat="43.102266" lon="0.939522">
        <ele>408.2</ele>
        <time>2012-11-02T12:59:20Z</time>
      </trkpt>
      <trkpt lat="43.102151" lon="0.939548">
        <ele>408.2</ele>
        <time>2012-11-02T12:59:30Z</time>
      </trkpt>
      <trkpt lat="43.102042" lon="0.939580">
        <ele>408.7</ele>
        <time>2012-11-02T12:59:41Z</time>
      </trkpt>
      <trkpt lat="43.101929" lon="0.939604">
        <ele>408.2</ele>
        <time>2012-11-02T12:59:57Z</time>
      </trkpt>
      <trkpt lat="43.101801" lon="0.939664">
        <ele>407.3</ele>
        <time>2012-11-02T13:00:14Z</time>
      </trkpt>
      <trkpt lat="43.101691" lon="0.939727">
        <ele>407.3</ele>
        <time>2012-11-02T13:00:24Z</time>
      </trkpt>
      <trkpt lat="43.101573" lon="0.939757">
        <ele>405.8</ele>
        <time>2012-11-02T13:00:34Z</time>
      </trkpt>
      <trkpt lat="43.101478" lon="0.939791">
        <ele>404.9</ele>
        <time>2012-11-02T13:00:42Z</time>
      </trkpt>
      <trkpt lat="43.101360" lon="0.939802">
        <ele>403.9</ele>
        <time>2012-11-02T13:00:51Z</time>
      </trkpt>
      <trkpt lat="43.101255" lon="0.939800">
        <ele>402.9</ele>
        <time>2012-11-02T13:00:59Z</time>
      </trkpt>
      <trkpt lat="43.101149" lon="0.939798">
        <ele>402.5</ele>
        <time>2012-11-02T13:01:07Z</time>
      </trkpt>
      <trkpt lat="43.101042" lon="0.939779">
        <ele>402.0</ele>
        <time>2012-11-02T13:01:15Z</time>
      </trkpt>
      <trkpt lat="43.100950" lon="0.939771">
        <ele>401.5</ele>
        <time>2012-11-02T13:01:23Z</time>
      </trkpt>
      <trkpt lat="43.100849" lon="0.939752">
        <ele>401.0</ele>
        <time>2012-11-02T13:01:42Z</time>
      </trkpt>
      <trkpt lat="43.100759" lon="0.939688">
        <ele>400.0</ele>
        <time>2012-11-02T13:01:50Z</time>
      </trkpt>
      <trkpt lat="43.100672" lon="0.939628">
        <ele>398.1</ele>
        <time>2012-11-02T13:01:59Z</time>
      </trkpt>
      <trkpt lat="43.100580" lon="0.939562">
        <ele>397.6</ele>
        <time>2012-11-02T13:02:16Z</time>
      </trkpt>
      <trkpt lat="43.100492" lon="0.939489">
        <ele>396.7</ele>
        <time>2012-11-02T13:02:25Z</time>
      </trkpt>
      <trkpt lat="43.100410" lon="0.939426">
        <ele>395.7</ele>
        <time>2012-11-02T13:02:33Z</time>
      </trkpt>
      <trkpt lat="43.100322" lon="0.939359">
        <ele>395.7</ele>
        <time>2012-11-02T13:02:41Z</time>
      </trkpt>
      <trkpt lat="43.100240" lon="0.939291">
        <ele>394.8</ele>
        <time>2012-11-02T13:02:49Z</time>
      </trkpt>
      <trkpt lat="43.100152" lon="0.939232">
        <ele>394.8</ele>
        <time>2012-11-02T13:03:36Z</time>
      </trkpt>
      <trkpt lat="43.100070" lon="0.939174">
        <ele>394.8</ele>
        <time>2012-11-02T13:03:44Z</time>
      </trkpt>
      <trkpt lat="43.099984" lon="0.939117">
        <ele>394.3</ele>
        <time>2012-11-02T13:03:52Z</time>
      </trkpt>
      <trkpt lat="43.099898" lon="0.939068">
        <ele>394.8</ele>
        <time>2012-11-02T13:04:00Z</time>
      </trkpt>
      <trkpt lat="43.099804" lon="0.939011">
        <ele>394.3</ele>
        <time>2012-11-02T13:04:08Z</time>
      </trkpt>
      <trkpt lat="43.099720" lon="0.938948">
        <ele>393.8</ele>
        <time>2012-11-02T13:04:16Z</time>
      </trkpt>
      <trkpt lat="43.099624" lon="0.938902">
        <ele>394.3</ele>
        <time>2012-11-02T13:04:24Z</time>
      </trkpt>
      <trkpt lat="43.099531" lon="0.938873">
        <ele>393.8</ele>
        <time>2012-11-02T13:04:31Z</time>
      </trkpt>
      <trkpt lat="43.099427" lon="0.938823">
        <ele>392.8</ele>
        <time>2012-11-02T13:04:37Z</time>
      </trkpt>
      <trkpt lat="43.099343" lon="0.938768">
        <ele>393.3</ele>
        <time>2012-11-02T13:04:42Z</time>
      </trkpt>
      <trkpt lat="43.099266" lon="0.938727">
        <ele>393.3</ele>
        <time>2012-11-02T13:04:47Z</time>
      </trkpt>
      <trkpt lat="43.099197" lon="0.938673">
        <ele>395.2</ele>
        <time>2012-11-02T13:04:55Z</time>
      </trkpt>
      <trkpt lat="43.099123" lon="0.938695">
        <ele>395.7</ele>
        <time>2012-11-02T13:05:03Z</time>
      </trkpt>
      <trkpt lat="43.099068" lon="0.938834">
        <ele>396.7</ele>
        <time>2012-11-02T13:05:11Z</time>
      </trkpt>
      <trkpt lat="43.098995" lon="0.938934">
        <ele>396.7</ele>
        <time>2012-11-02T13:05:19Z</time>
      </trkpt>
      <trkpt lat="43.098932" lon="0.939031">
        <ele>397.6</ele>
        <time>2012-11-02T13:05:27Z</time>
      </trkpt>
      <trkpt lat="43.098881" lon="0.939138">
        <ele>397.2</ele>
        <time>2012-11-02T13:05:35Z</time>
      </trkpt>
      <trkpt lat="43.098825" lon="0.939250">
        <ele>397.6</ele>
        <time>2012-11-02T13:05:43Z</time>
      </trkpt>
      <trkpt lat="43.098747" lon="0.939329">
        <ele>396.7</ele>
        <time>2012-11-02T13:05:52Z</time>
      </trkpt>
      <trkpt lat="43.098659" lon="0.939421">
        <ele>396.2</ele>
        <time>2012-11-02T13:06:03Z</time>
      </trkpt>
      <trkpt lat="43.098660" lon="0.939564">
        <ele>394.8</ele>
        <time>2012-11-02T13:06:12Z</time>
      </trkpt>
      <trkpt lat="43.098644" lon="0.939716">
        <ele>392.8</ele>
        <time>2012-11-02T13:06:21Z</time>
      </trkpt>
      <trkpt lat="43.098630" lon="0.939851">
        <ele>391.9</ele>
        <time>2012-11-02T13:06:29Z</time>
      </trkpt>
      <trkpt lat="43.098616" lon="0.939990">
        <ele>390.4</ele>
        <time>2012-11-02T13:06:37Z</time>
      </trkpt>
      <trkpt lat="43.098617" lon="0.940128">
        <ele>389.0</ele>
        <time>2012-11-02T13:06:46Z</time>
      </trkpt>
      <trkpt lat="43.098606" lon="0.940263">
        <ele>387.5</ele>
        <time>2012-11-02T13:06:54Z</time>
      </trkpt>
      <trkpt lat="43.098589" lon="0.940407">
        <ele>386.1</ele>
        <time>2012-11-02T13:07:03Z</time>
      </trkpt>
      <trkpt lat="43.098549" lon="0.940537">
        <ele>384.7</ele>
        <time>2012-11-02T13:07:11Z</time>
      </trkpt>
      <trkpt lat="43.098488" lon="0.940651">
        <ele>382.7</ele>
        <time>2012-11-02T13:07:19Z</time>
      </trkpt>
      <trkpt lat="43.098419" lon="0.940763">
        <ele>382.3</ele>
        <time>2012-11-02T13:07:27Z</time>
      </trkpt>
      <trkpt lat="43.098381" lon="0.940886">
        <ele>381.8</ele>
        <time>2012-11-02T13:07:34Z</time>
      </trkpt>
      <trkpt lat="43.098373" lon="0.941039">
        <ele>380.8</ele>
        <time>2012-11-02T13:07:43Z</time>
      </trkpt>
      <trkpt lat="43.098397" lon="0.941208">
        <ele>379.4</ele>
        <time>2012-11-02T13:07:54Z</time>
      </trkpt>
      <trkpt lat="43.098397" lon="0.941402">
        <ele>378.4</ele>
        <time>2012-11-02T13:08:06Z</time>
      </trkpt>
      <trkpt lat="43.098350" lon="0.941604">
        <ele>377.5</ele>
        <time>2012-11-02T13:08:17Z</time>
      </trkpt>
      <trkpt lat="43.098293" lon="0.941769">
        <ele>376.5</ele>
        <time>2012-11-02T13:08:27Z</time>
      </trkpt>
      <trkpt lat="43.098240" lon="0.941917">
        <ele>376.0</ele>
        <time>2012-11-02T13:08:36Z</time>
      </trkpt>
      <trkpt lat="43.098186" lon="0.942047">
        <ele>375.5</ele>
        <time>2012-11-02T13:08:44Z</time>
      </trkpt>
      <trkpt lat="43.098134" lon="0.942171">
        <ele>374.6</ele>
        <time>2012-11-02T13:08:52Z</time>
      </trkpt>
      <trkpt lat="43.098085" lon="0.942309">
        <ele>373.6</ele>
        <time>2012-11-02T13:09:02Z</time>
      </trkpt>
      <trkpt lat="43.098024" lon="0.942444">
        <ele>372.6</ele>
        <time>2012-11-02T13:09:11Z</time>
      </trkpt>
      <trkpt lat="43.097976" lon="0.942573">
        <ele>371.7</ele>
        <time>2012-11-02T13:09:19Z</time>
      </trkpt>
      <trkpt lat="43.097926" lon="0.942691">
        <ele>370.7</ele>
        <time>2012-11-02T13:09:27Z</time>
      </trkpt>
      <trkpt lat="43.097872" lon="0.942819">
        <ele>370.2</ele>
        <time>2012-11-02T13:09:35Z</time>
      </trkpt>
      <trkpt lat="43.097810" lon="0.942960">
        <ele>369.3</ele>
        <time>2012-11-02T13:09:44Z</time>
      </trkpt>
      <trkpt lat="43.097748" lon="0.943092">
        <ele>368.3</ele>
        <time>2012-11-02T13:09:53Z</time>
      </trkpt>
      <trkpt lat="43.097701" lon="0.943240">
        <ele>368.3</ele>
        <time>2012-11-02T13:10:03Z</time>
      </trkpt>
      <trkpt lat="43.097668" lon="0.943381">
        <ele>367.4</ele>
        <time>2012-11-02T13:10:12Z</time>
      </trkpt>
      <trkpt lat="43.097696" lon="0.943525">
        <ele>366.4</ele>
        <time>2012-11-02T13:10:21Z</time>
      </trkpt>
      <trkpt lat="43.097778" lon="0.943630">
        <ele>366.4</ele>
        <time>2012-11-02T13:10:29Z</time>
      </trkpt>
      <trkpt lat="43.097848" lon="0.943748">
        <ele>366.4</ele>
        <time>2012-11-02T13:10:37Z</time>
      </trkpt>
      <trkpt lat="43.097911" lon="0.943866">
        <ele>365.4</ele>
        <time>2012-11-02T13:10:45Z</time>
      </trkpt>
      <trkpt lat="43.097985" lon="0.943968">
        <ele>365.9</ele>
        <time>2012-11-02T13:10:53Z</time>
      </trkpt>
      <trkpt lat="43.098065" lon="0.944070">
        <ele>365.9</ele>
        <time>2012-11-02T13:11:01Z</time>
      </trkpt>
      <trkpt lat="43.098146" lon="0.944162">
        <ele>366.9</ele>
        <time>2012-11-02T13:11:09Z</time>
      </trkpt>
      <trkpt lat="43.098243" lon="0.944247">
        <ele>368.8</ele>
        <time>2012-11-02T13:11:18Z</time>
      </trkpt>
      <trkpt lat="43.098349" lon="0.944332">
        <ele>370.7</ele>
        <time>2012-11-02T13:11:29Z</time>
      </trkpt>
      <trkpt lat="43.098469" lon="0.944373">
        <ele>371.2</ele>
        <time>2012-11-02T13:11:39Z</time>
        <name>Les Bourdasses</name>
      </trkpt>
      <trkpt lat="43.098570" lon="0.944455">
        <ele>370.2</ele>
        <time>2012-11-02T13:11:50Z</time>
      </trkpt>
      <trkpt lat="43.098667" lon="0.944606">
        <ele>369.8</ele>
        <time>2012-11-02T13:12:00Z</time>
      </trkpt>
      <trkpt lat="43.098681" lon="0.944766">
        <ele>369.3</ele>
        <time>2012-11-02T13:12:10Z</time>
      </trkpt>
      <trkpt lat="43.098670" lon="0.944917">
        <ele>367.8</ele>
        <time>2012-11-02T13:12:18Z</time>
      </trkpt>
      <trkpt lat="43.098644" lon="0.945072">
        <ele>367.4</ele>
        <time>2012-11-02T13:12:27Z</time>
      </trkpt>
      <trkpt lat="43.098604" lon="0.945212">
        <ele>365.9</ele>
        <time>2012-11-02T13:12:36Z</time>
      </trkpt>
      <trkpt lat="43.098567" lon="0.945358">
        <ele>365.4</ele>
        <time>2012-11-02T13:12:45Z</time>
      </trkpt>
      <trkpt lat="43.098524" lon="0.945498">
        <ele>364.0</ele>
        <time>2012-11-02T13:12:54Z</time>
      </trkpt>
      <trkpt lat="43.098494" lon="0.945633">
        <ele>363.0</ele>
        <time>2012-11-02T13:13:03Z</time>
      </trkpt>
      <trkpt lat="43.098456" lon="0.945792">
        <ele>363.0</ele>
        <time>2012-11-02T13:13:13Z</time>
      </trkpt>
      <trkpt lat="43.098438" lon="0.945944">
        <ele>362.1</ele>
        <time>2012-11-02T13:13:22Z</time>
      </trkpt>
      <trkpt lat="43.098411" lon="0.946082">
        <ele>360.6</ele>
        <time>2012-11-02T13:13:32Z</time>
      </trkpt>
      <trkpt lat="43.098380" lon="0.946245">
        <ele>360.6</ele>
        <time>2012-11-02T13:13:42Z</time>
      </trkpt>
      <trkpt lat="43.098347" lon="0.946437">
        <ele>359.2</ele>
        <time>2012-11-02T13:14:17Z</time>
      </trkpt>
      <trkpt lat="43.098331" lon="0.946561">
        <ele>358.7</ele>
        <time>2012-11-02T13:14:28Z</time>
      </trkpt>
      <trkpt lat="43.098310" lon="0.946733">
        <ele>357.3</ele>
        <time>2012-11-02T13:15:18Z</time>
      </trkpt>
      <trkpt lat="43.098273" lon="0.946871">
        <ele>355.8</ele>
        <time>2012-11-02T13:15:29Z</time>
      </trkpt>
      <trkpt lat="43.098229" lon="0.947009">
        <ele>354.4</ele>
        <time>2012-11-02T13:15:40Z</time>
      </trkpt>
      <trkpt lat="43.098197" lon="0.947167">
        <ele>354.4</ele>
        <time>2012-11-02T13:15:52Z</time>
      </trkpt>
      <trkpt lat="43.098149" lon="0.947314">
        <ele>353.4</ele>
        <time>2012-11-02T13:16:03Z</time>
      </trkpt>
      <trkpt lat="43.098092" lon="0.947464">
        <ele>353.9</ele>
        <time>2012-11-02T13:16:13Z</time>
      </trkpt>
      <trkpt lat="43.098099" lon="0.947618">
        <ele>353.4</ele>
        <time>2012-11-02T13:16:23Z</time>
      </trkpt>
      <trkpt lat="43.098107" lon="0.947753">
        <ele>352.9</ele>
        <time>2012-11-02T13:16:33Z</time>
      </trkpt>
      <trkpt lat="43.098141" lon="0.947925">
        <ele>352.9</ele>
        <time>2012-11-02T13:16:44Z</time>
      </trkpt>
      <trkpt lat="43.098179" lon="0.948088">
        <ele>353.9</ele>
        <time>2012-11-02T13:16:55Z</time>
      </trkpt>
      <trkpt lat="43.098208" lon="0.948239">
        <ele>353.9</ele>
        <time>2012-11-02T13:17:05Z</time>
      </trkpt>
      <trkpt lat="43.098262" lon="0.948385">
        <ele>353.4</ele>
        <time>2012-11-02T13:17:15Z</time>
      </trkpt>
      <trkpt lat="43.098316" lon="0.948525">
        <ele>353.4</ele>
        <time>2012-11-02T13:17:25Z</time>
      </trkpt>
      <trkpt lat="43.098374" lon="0.948661">
        <ele>352.9</ele>
        <time>2012-11-02T13:17:35Z</time>
      </trkpt>
      <trkpt lat="43.098430" lon="0.948784">
        <ele>353.4</ele>
        <time>2012-11-02T13:17:44Z</time>
      </trkpt>
      <trkpt lat="43.098479" lon="0.948914">
        <ele>352.9</ele>
        <time>2012-11-02T13:17:54Z</time>
      </trkpt>
      <trkpt lat="43.098533" lon="0.949058">
        <ele>352.0</ele>
        <time>2012-11-02T13:18:03Z</time>
      </trkpt>
      <trkpt lat="43.098588" lon="0.949196">
        <ele>350.1</ele>
        <time>2012-11-02T13:18:12Z</time>
      </trkpt>
      <trkpt lat="43.098647" lon="0.949339">
        <ele>349.1</ele>
        <time>2012-11-02T13:18:21Z</time>
      </trkpt>
      <trkpt lat="43.098698" lon="0.949481">
        <ele>348.1</ele>
        <time>2012-11-02T13:18:30Z</time>
      </trkpt>
      <trkpt lat="43.098755" lon="0.949603">
        <ele>347.6</ele>
        <time>2012-11-02T13:18:39Z</time>
      </trkpt>
      <trkpt lat="43.098814" lon="0.949718">
        <ele>347.2</ele>
        <time>2012-11-02T13:18:48Z</time>
      </trkpt>
      <trkpt lat="43.098885" lon="0.949837">
        <ele>346.2</ele>
        <time>2012-11-02T13:18:58Z</time>
      </trkpt>
      <trkpt lat="43.098973" lon="0.949942">
        <ele>344.8</ele>
        <time>2012-11-02T13:19:08Z</time>
      </trkpt>
      <trkpt lat="43.099050" lon="0.950043">
        <ele>344.3</ele>
        <time>2012-11-02T13:19:16Z</time>
      </trkpt>
      <trkpt lat="43.099128" lon="0.950131">
        <ele>343.8</ele>
        <time>2012-11-02T13:19:24Z</time>
      </trkpt>
      <trkpt lat="43.099202" lon="0.950239">
        <ele>342.4</ele>
        <time>2012-11-02T13:19:33Z</time>
      </trkpt>
      <trkpt lat="43.099273" lon="0.950353">
        <ele>341.9</ele>
        <time>2012-11-02T13:19:41Z</time>
      </trkpt>
      <trkpt lat="43.099341" lon="0.950463">
        <ele>340.9</ele>
        <time>2012-11-02T13:19:50Z</time>
      </trkpt>
      <trkpt lat="43.099401" lon="0.950574">
        <ele>339.5</ele>
        <time>2012-11-02T13:19:58Z</time>
      </trkpt>
      <trkpt lat="43.099469" lon="0.950683">
        <ele>338.5</ele>
        <time>2012-11-02T13:20:07Z</time>
      </trkpt>
      <trkpt lat="43.099521" lon="0.950818">
        <ele>338.5</ele>
        <time>2012-11-02T13:20:16Z</time>
      </trkpt>
      <trkpt lat="43.099545" lon="0.950970">
        <ele>338.0</ele>
        <time>2012-11-02T13:20:25Z</time>
      </trkpt>
      <trkpt lat="43.099526" lon="0.951133">
        <ele>338.5</ele>
        <time>2012-11-02T13:20:34Z</time>
        <name>Carrefour vers D13d</name>
      </trkpt>
      <trkpt lat="43.099579" lon="0.951259">
        <ele>338.0</ele>
        <time>2012-11-02T13:20:42Z</time>
      </trkpt>
      <trkpt lat="43.099664" lon="0.951394">
        <ele>336.6</ele>
        <time>2012-11-02T13:20:52Z</time>
      </trkpt>
      <trkpt lat="43.099723" lon="0.951520">
        <ele>335.2</ele>
        <time>2012-11-02T13:21:03Z</time>
      </trkpt>
      <trkpt lat="43.099773" lon="0.951656">
        <ele>332.3</ele>
        <time>2012-11-02T13:21:13Z</time>
      </trkpt>
      <trkpt lat="43.099818" lon="0.951789">
        <ele>330.8</ele>
        <time>2012-11-02T13:21:23Z</time>
      </trkpt>
      <trkpt lat="43.099873" lon="0.951924">
        <ele>329.9</ele>
        <time>2012-11-02T13:21:33Z</time>
      </trkpt>
      <trkpt lat="43.099918" lon="0.952066">
        <ele>328.0</ele>
        <time>2012-11-02T13:21:43Z</time>
      </trkpt>
      <trkpt lat="43.099989" lon="0.952227">
        <ele>327.0</ele>
        <time>2012-11-02T13:21:54Z</time>
      </trkpt>
      <trkpt lat="43.100044" lon="0.952370">
        <ele>325.1</ele>
        <time>2012-11-02T13:22:05Z</time>
      </trkpt>
      <trkpt lat="43.100082" lon="0.952503">
        <ele>324.1</ele>
        <time>2012-11-02T13:22:14Z</time>
      </trkpt>
      <trkpt lat="43.100132" lon="0.952618">
        <ele>322.7</ele>
        <time>2012-11-02T13:22:22Z</time>
      </trkpt>
      <trkpt lat="43.100199" lon="0.952758">
        <ele>321.7</ele>
        <time>2012-11-02T13:22:31Z</time>
      </trkpt>
      <trkpt lat="43.100282" lon="0.952901">
        <ele>320.3</ele>
        <time>2012-11-02T13:22:42Z</time>
      </trkpt>
      <trkpt lat="43.100338" lon="0.953034">
        <ele>319.3</ele>
        <time>2012-11-02T13:22:52Z</time>
      </trkpt>
      <trkpt lat="43.100411" lon="0.953157">
        <ele>319.3</ele>
        <time>2012-11-02T13:23:01Z</time>
      </trkpt>
      <trkpt lat="43.100476" lon="0.953289">
        <ele>317.9</ele>
        <time>2012-11-02T13:23:11Z</time>
      </trkpt>
      <trkpt lat="43.100540" lon="0.953429">
        <ele>317.4</ele>
        <time>2012-11-02T13:23:20Z</time>
      </trkpt>
      <trkpt lat="43.100599" lon="0.953551">
        <ele>316.9</ele>
        <time>2012-11-02T13:23:28Z</time>
      </trkpt>
      <trkpt lat="43.100672" lon="0.953645">
        <ele>315.9</ele>
        <time>2012-11-02T13:23:36Z</time>
      </trkpt>
      <trkpt lat="43.100744" lon="0.953772">
        <ele>314.5</ele>
        <time>2012-11-02T13:23:45Z</time>
      </trkpt>
      <trkpt lat="43.100789" lon="0.953891">
        <ele>315.0</ele>
        <time>2012-11-02T13:23:53Z</time>
      </trkpt>
      <trkpt lat="43.100839" lon="0.954026">
        <ele>315.0</ele>
        <time>2012-11-02T13:24:02Z</time>
      </trkpt>
      <trkpt lat="43.100868" lon="0.954165">
        <ele>314.0</ele>
        <time>2012-11-02T13:24:11Z</time>
      </trkpt>
      <trkpt lat="43.100901" lon="0.954374">
        <ele>314.0</ele>
        <time>2012-11-02T13:24:23Z</time>
      </trkpt>
      <trkpt lat="43.100914" lon="0.954564">
        <ele>312.6</ele>
        <time>2012-11-02T13:24:33Z</time>
      </trkpt>
      <trkpt lat="43.100934" lon="0.954718">
        <ele>312.1</ele>
        <time>2012-11-02T13:24:43Z</time>
      </trkpt>
      <trkpt lat="43.100936" lon="0.954868">
        <ele>312.1</ele>
        <time>2012-11-02T13:24:51Z</time>
      </trkpt>
      <trkpt lat="43.100958" lon="0.955048">
        <ele>311.1</ele>
        <time>2012-11-02T13:25:00Z</time>
      </trkpt>
      <trkpt lat="43.100971" lon="0.955210">
        <ele>310.6</ele>
        <time>2012-11-02T13:25:09Z</time>
      </trkpt>
      <trkpt lat="43.100998" lon="0.955354">
        <ele>310.6</ele>
        <time>2012-11-02T13:25:18Z</time>
      </trkpt>
      <trkpt lat="43.101002" lon="0.955522">
        <ele>310.2</ele>
        <time>2012-11-02T13:25:28Z</time>
      </trkpt>
      <trkpt lat="43.101000" lon="0.955680">
        <ele>309.7</ele>
        <time>2012-11-02T13:25:38Z</time>
      </trkpt>
      <trkpt lat="43.101018" lon="0.955821">
        <ele>309.2</ele>
        <time>2012-11-02T13:25:48Z</time>
      </trkpt>
      <trkpt lat="43.101034" lon="0.955965">
        <ele>308.7</ele>
        <time>2012-11-02T13:25:58Z</time>
      </trkpt>
      <trkpt lat="43.101064" lon="0.956118">
        <ele>308.2</ele>
        <time>2012-11-02T13:26:07Z</time>
      </trkpt>
      <trkpt lat="43.101086" lon="0.956255">
        <ele>308.2</ele>
        <time>2012-11-02T13:26:16Z</time>
      </trkpt>
      <trkpt lat="43.101036" lon="0.956396">
        <ele>307.8</ele>
        <time>2012-11-02T13:26:25Z</time>
      </trkpt>
      <trkpt lat="43.101045" lon="0.956558">
        <ele>307.3</ele>
        <time>2012-11-02T13:26:41Z</time>
      </trkpt>
      <trkpt lat="43.101062" lon="0.956736">
        <ele>306.3</ele>
        <time>2012-11-02T13:26:51Z</time>
      </trkpt>
      <trkpt lat="43.101069" lon="0.956889">
        <ele>305.8</ele>
        <time>2012-11-02T13:27:01Z</time>
      </trkpt>
      <trkpt lat="43.101079" lon="0.957054">
        <ele>304.9</ele>
        <time>2012-11-02T13:27:11Z</time>
      </trkpt>
      <trkpt lat="43.101060" lon="0.957188">
        <ele>304.9</ele>
        <time>2012-11-02T13:27:20Z</time>
      </trkpt>
      <trkpt lat="43.101027" lon="0.957328">
        <ele>304.9</ele>
        <time>2012-11-02T13:27:29Z</time>
      </trkpt>
      <trkpt lat="43.101060" lon="0.957429">
        <ele>304.4</ele>
        <time>2012-11-02T13:27:37Z</time>
      </trkpt>
      <trkpt lat="43.101157" lon="0.957467">
        <ele>304.4</ele>
        <time>2012-11-02T13:27:46Z</time>
      </trkpt>
      <trkpt lat="43.101244" lon="0.957529">
        <ele>304.4</ele>
        <time>2012-11-02T13:27:56Z</time>
      </trkpt>
      <trkpt lat="43.101257" lon="0.957687">
        <ele>303.9</ele>
        <time>2012-11-02T13:28:06Z</time>
      </trkpt>
      <trkpt lat="43.101276" lon="0.957837">
        <ele>303.9</ele>
        <time>2012-11-02T13:28:16Z</time>
      </trkpt>
      <trkpt lat="43.101368" lon="0.957902">
        <ele>303.4</ele>
        <time>2012-11-02T13:28:26Z</time>
      </trkpt>
      <trkpt lat="43.101471" lon="0.957963">
        <ele>303.4</ele>
        <time>2012-11-02T13:28:36Z</time>
      </trkpt>
      <trkpt lat="43.101577" lon="0.958015">
        <ele>303.4</ele>
        <time>2012-11-02T13:28:46Z</time>
      </trkpt>
      <trkpt lat="43.101678" lon="0.958067">
        <ele>303.0</ele>
        <time>2012-11-02T13:28:57Z</time>
      </trkpt>
      <trkpt lat="43.101767" lon="0.958114">
        <ele>303.4</ele>
        <time>2012-11-02T13:29:09Z</time>
      </trkpt>
      <trkpt lat="43.101877" lon="0.958172">
        <ele>303.0</ele>
        <time>2012-11-02T13:29:33Z</time>
      </trkpt>
      <trkpt lat="43.101969" lon="0.958215">
        <ele>303.0</ele>
        <time>2012-11-02T13:29:48Z</time>
      </trkpt>
      <trkpt lat="43.102052" lon="0.958285">
        <ele>303.4</ele>
        <time>2012-11-02T13:30:09Z</time>
      </trkpt>
      <trkpt lat="43.102149" lon="0.958310">
        <ele>302.5</ele>
        <time>2012-11-02T13:30:32Z</time>
      </trkpt>
      <trkpt lat="43.102258" lon="0.958293">
        <ele>302.5</ele>
        <time>2012-11-02T13:30:41Z</time>
      </trkpt>
      <trkpt lat="43.102359" lon="0.958329">
        <ele>303.0</ele>
        <time>2012-11-02T13:30:50Z</time>
      </trkpt>
      <trkpt lat="43.102452" lon="0.958395">
        <ele>303.0</ele>
        <time>2012-11-02T13:30:59Z</time>
      </trkpt>
      <trkpt lat="43.102545" lon="0.958461">
        <ele>303.0</ele>
        <time>2012-11-02T13:31:08Z</time>
      </trkpt>
      <trkpt lat="43.102639" lon="0.958496">
        <ele>303.4</ele>
        <time>2012-11-02T13:31:17Z</time>
      </trkpt>
      <trkpt lat="43.102716" lon="0.958563">
        <ele>303.4</ele>
        <time>2012-11-02T13:31:25Z</time>
      </trkpt>
      <trkpt lat="43.102803" lon="0.958626">
        <ele>303.0</ele>
        <time>2012-11-02T13:31:33Z</time>
      </trkpt>
      <trkpt lat="43.102870" lon="0.958732">
        <ele>302.5</ele>
        <time>2012-11-02T13:31:45Z</time>
      </trkpt>
      <trkpt lat="43.102959" lon="0.958840">
        <ele>302.5</ele>
        <time>2012-11-02T13:31:55Z</time>
      </trkpt>
      <trkpt lat="43.103017" lon="0.958971">
        <ele>302.0</ele>
        <time>2012-11-02T13:32:03Z</time>
      </trkpt>
      <trkpt lat="43.103043" lon="0.959119">
        <ele>302.0</ele>
        <time>2012-11-02T13:32:14Z</time>
      </trkpt>
      <trkpt lat="43.103096" lon="0.959243">
        <ele>302.0</ele>
        <time>2012-11-02T13:32:20Z</time>
      </trkpt>
      <trkpt lat="43.103089" lon="0.959364">
        <ele>301.5</ele>
        <time>2012-11-02T13:32:25Z</time>
      </trkpt>
      <trkpt lat="43.103045" lon="0.959450">
        <ele>301.0</ele>
        <time>2012-11-02T13:32:34Z</time>
      </trkpt>
      <trkpt lat="43.103111" lon="0.959556">
        <ele>301.0</ele>
        <time>2012-11-02T13:32:47Z</time>
      </trkpt>
      <trkpt lat="43.103211" lon="0.959674">
        <ele>300.5</ele>
        <time>2012-11-02T13:33:04Z</time>
      </trkpt>
      <trkpt lat="43.103315" lon="0.959785">
        <ele>300.5</ele>
        <time>2012-11-02T13:33:20Z</time>
      </trkpt>
      <trkpt lat="43.103411" lon="0.959860">
        <ele>301.0</ele>
        <time>2012-11-02T13:33:32Z</time>
      </trkpt>
      <trkpt lat="43.103508" lon="0.959977">
        <ele>301.0</ele>
        <time>2012-11-02T13:33:43Z</time>
      </trkpt>
      <trkpt lat="43.103617" lon="0.960051">
        <ele>300.5</ele>
        <time>2012-11-02T13:33:54Z</time>
      </trkpt>
      <trkpt lat="43.103739" lon="0.960151">
        <ele>300.5</ele>
        <time>2012-11-02T13:34:04Z</time>
      </trkpt>
      <trkpt lat="43.103830" lon="0.960274">
        <ele>300.5</ele>
        <time>2012-11-02T13:34:25Z</time>
      </trkpt>
    </trkseg>
  </trk>
</gpx>

